Hundreds of Positions Available Nationwide

Apply for an Exciting Career Opportunity!


The following jobs are currently available.
Click on the job to find out more about the requirements for the position.

<
#Job IDTitle# OpeningsLocationRateDurationPostedCategory 
1 184302 Manufacturing Technician 1Miami, FLUp to $14.00 DOE12 mos01/24/2020MANO,
2 184303 Agile Coach / Release Train Engineer 2Colorado Springs, CO$DOE12 MONTHS01/24/2020ITO,
3 184304 Buyer 1Philadelphia, PA$25 to $30.00 DOE6 Months01/24/2020PROO,
4 184305 Sr Software Engineer 1Muskegon, MI$45 to $50.00 DOE4 Months01/24/2020ITO, OM
5 184306 Talent Acquisition Sourcer 1Salt Lake City, UT$30 to $35.00 DOE6 Months01/24/2020PROO,
6 184307 Aircraft Security Control Assessor Representative (SCAR) 1Wright-Patterson AFB, OH.$DOE12 months01/24/2020ITO, TS
7 184308 Aircraft Structural Assembler - Vertical Lift 10Mesa, AZ$DOE12 Months01/24/2020MANO,
8 184309 Operations Technician 1Frederick, MDUp to $18.00 DOE2 Months01/24/2020MANO,
9 184310 Warehouse Associate 1Mountainside, NJ$13.09 to $13.81 DOE1 year01/24/2020GENO,
10 184312 Production Test Technician 1Ventura, CA$DOE12 months01/24/2020MANO,
11 184313 Office Coordinator 1Santa Monica, CA$DOE6 months01/24/2020ADMO,
12 184314 Technician 1Bothell, WA$DOE12 months01/24/2020MANO,
13 184315 Scientist I 1Grand Island, NYUp to $22.50 DOE3 Months01/24/2020ENGO,
14 184316 Production Test Technician 2Manassas, VA$DOE12 months01/24/2020MANO,
15 184317 PC Support Technician 1Raleigh, NCUp to $29.03 DOE6 months, CTH01/24/2020ITO, PPT
16 184318 Information Systems Project Manager 1Raleigh, NCUp to $73.35 DOE6 months, CTH01/24/2020ITO, PPT
17 184319 EH&S Specialist 1Philadelphia, PAUp to $25.00 DOE6 Months01/24/2020MANO,
18 184320 Product Repair/Mod Tech C 1Tinker AFB, OK$DOE12 months01/24/2020MANO, I
19 184322 Mechanical Engineer 1Tulsa, OK$55 to $60.00 DOE5 Months01/24/2020ENGO, OM
20 184323 Product Repair/Mod Tech C 8Mountain Home AFB, ID$DOE12 Months01/24/2020MANO, I
21 184277 Supply Chain Specialist 2 1Newport News, VA$27.64 to $36.36 DOE1 year01/23/2020PROO,
22 184279 Avionic Technician 4Greenville, SC$DOE5 months01/23/2020MANO,
23 184280 HR Support 1Littleton/Waterton, CO$DOE10 months01/23/2020PROO,
24 184281 Buyer 1Peachtree City, GA$20 to $25.00 DOE6 Months01/23/2020ADMO,
25 184282 Electronics Assembly Technician 4Mason, OHUp to $18.00 DOE6 Months01/23/2020MANO, I
26 184283 Aircraft Structures Mechanic 1 1St. Augustine, FLUp to $17.00 DOE1 year01/23/2020MANO,
27 184284 Financial Analyst 3 1Huntsville, AL$DOE4.5 Months01/23/2020PROO,
28 184285 Aircraft Structures Mechanic 3 2St. Augustine, FLUp to $28.00 DOE1 year01/23/2020MANO,
29 184287 Power Supply Technician 2El Segundo, CA$DOE6 Months01/23/2020MANO,
30 184288 Accounting Analyst 1St. Louis, MOUp to $30.00 DOE6 Months01/23/2020PROO,
31 184289 Writer Editor 2 1Mesa, AZ$DOE12 Months01/23/2020ITO,
32 184290 PCB Designer 1Germantown, MD$DOE12 Months01/23/2020ENGO,
33 184292 Sr Principal Software Development Analyst 4 1Redondo Beach, CA$59 to $61.00 DOE1 year01/23/2020ITO, OM
34 184294 Business Intelligence Analyst 4 2St. Louis City, MO$DOE12 Months01/23/2020ITO,
35 184295 CNC Operator 1Santa Maria, CAUp to $11.00 DOE3 Months01/23/2020GENO,
36 184297 Department Assistant 1Tupelo, MS$DOE3-6 Months01/23/2020ADMO,
37 184298 Cybersecurity Risk Management Framework SME 1North Charleston, SC$DOE12 months01/23/2020ITO, S
38 184299 Customer Service Support Representative 1Burnsville, MNUp to $20.00 DOE2 Months01/23/2020ADMO,
39 184300 Assembler 6Marion, MA$DOE12 months01/23/2020MANO,
40 184301 Assembler 6Marion, MA$DOE12 MONTHS01/23/2020MANO,
41 184234 Quality Systems Specialist 1 1Goodyear, AZ$DOE6 Months01/22/2020MANO,
42 184235 Accounts Payable Clerk 1Fair Lawn, NJUp to $33.76 DOE12 mos01/22/2020PROO,
43 184236 Manufacturing Planner 4 10Berkeley, MO$DOE6 Months01/22/2020ENGO, OM
44 184237 Manufacturing Planner 3 1Berkeley, MO$DOE6 Months01/22/2020ENGO, OM
45 184238 Manufacturing Engineer 3 10Berkeley, MO$DOE6 Months01/22/2020ENGO, OM
46 184239 Senior Principal Mechanical Engineer 3Redondo Beach, CA$65 to $68.00 DOE6 months01/22/2020ENGO, OM
47 184241 Manufacturing Engineer 4 1Berkeley, MO$DOE6 Months01/22/2020ENGO, OM
48 184243 CAD Designer 1Rancho Bernardo, CA$DOE6 Months01/22/2020ENGO,
49 184244 Design and Analysis Engineer 4 10Berkeley, MO$DOE12 Months01/22/2020ENGO, OM
50 184245 CAD Designer 1Rancho Bernardo, CA$DOE6 Months01/22/2020ENGO,
51 184246 Dimension Control Technician 3 1Palmdale, CAUp to $40.00 DOE1 year01/22/2020MANO,
52 184247 Software Engineer 4 15Berkeley, MO$DOE12 months01/22/2020ITO, OM
53 184248 CAD Designer 1Rancho Bernardo, CA$DOE6 Months01/22/2020ENGO,
54 184249 Design and Analysis Engineer 3 10Berkeley, MO$DOE12 Months01/22/2020ENGO, OM
55 184250 Dimension Control Technician 4 1Palmdale, CA$40 to $50.00 DOE1 year01/22/2020MANO,
56 184251 NC Programmer 3 3Palmdale, CAUp to $55.00 DOE1 year01/22/2020MANO, S
57 184252 Design and Analysis Engineer 2 10Berkeley, MO$DOE12 Months01/22/2020ENGO, OM
58 184253 Software Engineer 3 20Berkeley, MO$DOE12 Months01/22/2020ITO, OM
59 184254 CAD Designer 1Rancho Bernardo, CA$DOE6 Months01/22/2020ENGO,
60 184255 Software Engineer 2 20Berkeley, MO$DOE12 Months01/22/2020ITO, OM
61 184257 Furniture Project Specialist Staff 1El Segundo, CAUp to $100.00 DOE3 years01/22/2020MANO,
62 184258 Facilities Engineer 1Chelmsford, MAUp to $45.00 DOE6 Months01/22/2020ENGO,
63 184259 Budget Analyst 1Fort Bragg, NC$DOE4 months01/22/2020PROO, TS
64 184260 Technical Illustrator 1 3Fort Walton Beach, FL$DOE6 Months01/22/2020PROO,
65 184262 User Applications Analyst 1Fort Bragg, NC$DOE5 months01/22/2020PROO, TS
66 184263 Structural Analysis Engineer 3 1North Charleston, SC$DOE12 Months01/22/2020ENGO,
67 184264 Scientist I 1Carlsbad, CA$DOE12 Months01/22/2020ENGO,
68 184265 Assembler 3Oldsmar, FL$DOE12 months01/22/2020MANO,
69 184266 Assembler 1Oldsmar, FL$DOE12 months01/22/2020MANO,
70 184267 Warehouse Associate 1San Jose, CA$DOE12 Months01/22/2020GENO,
71 184268 Assembler 1Oldsmar, FL$DOE12 months01/22/2020GENO,
72 184269 Administrative Assistant 1Manassas, VA$DOE3 months01/22/2020ADMO,
73 184271 Administrative Assistant 1Manassas, VA$DOE12 months01/22/2020ADMO,
74 184272 Structural Analysis Engineer 3 3Tukwila, WA$DOE11.5 Months01/22/2020ENGHSM,
75 184274 Associate Manufacturing Analyst 1 1Palmdale, CA$28 to $29.00 DOE1 year01/22/2020MANO, OM
76 184275 Retail Operations Specialist 2 1Seattle, WA$DOE12 Months01/22/2020ADMHSM,
77 184276 Deceleration Engineer 1Orlando, FL$DOEDirect01/22/2020ENGO,
78 184194 Packaging/Labeling Technician I 1Indianapolis, INUp to $13.75 DOE 01/21/2020GENO,
79 184195 Production/Inventory Coordinator A 4Mesa, AZ$DOE 01/21/2020GENO,
80 184196 Manufacturing Engineer 3 1Tukwila, WA$DOE6 Months01/21/2020ENGO,
81 184197 Manufacturing Engineer 3 1Tukwila, WA$DOE6 Months01/21/2020ENGO,
82 184198 Software Engineer 3 3Ridley Park, PA$DOE10 months01/21/2020ENGO,
83 184199 Manufacturing Engineer 4 1Tukwila, WA$DOE6 Months01/21/2020ENGO,
84 184200 Manufacturing Technician I 1Frederick, MDUp to $18.00 DOE12 mos01/21/2020MANO,
85 184201 Material Handler I 1Grand Island, NY$DOE11 mos01/21/2020GENO,
86 184202 Occupational Health & Safety Specialist 3 1Moses Lake, WA$DOE12 Months01/21/2020PROO,
87 184203 Embedded Software Engineer 1Grand Prairie, TXUp to $95.00 DOE12 Months01/21/2020ITO, S
88 184204 Occupational Health & Safety Specialist 3 1Everett, WA$DOE12 Months01/21/2020PROO,
89 184205 Equipment Control Coordinator 1Torrance, CA$17 to $24.00 DOE4 Months01/21/2020GENO,
90 184206 Manufacturing Planner 4 1Tukwila, WA$DOE6 Months01/21/2020MANO,
91 184207 Production Planner 1Torrance, CA$25 to $30.00 DOE3 Months01/21/2020MANO,
92 184208 Manufacturing Planner 3 10Tukwila, WA$DOE6 Months01/21/2020MANO,
93 184210 Manufacturing Technician 1Frederick, MDUp to $18.00 DOE12 Months01/21/2020MANO,
94 184211 Manufacturing Engineer 4 1Tukwila, WA$DOE6 Months01/21/2020ENGO,
95 184212 Lab Supervisor 1Princeton, NJ$DOE5 Months01/21/2020MANO,
96 184213 Material Handler 1Asheville, NC$DOE12 Months01/21/2020GENO,
97 184215 Engineer Circuit Design 5 2Redondo Beach, CAUp to $90.00 DOE1 year01/21/2020ENGO,
98 184217 Lab Technician 1Santa Clara, CA$DOE12 Months01/21/2020MANO,
99 184218 Sr Principal NC Programmer 2Palmdale, CA$65 to $70.00 DOE1 year01/21/2020MANO, S
100 184220 Structural Analysis Engineer 2 6Ridley Park, PA$DOE12 Months01/21/2020ENGHSM,
101 184221 Analyst, Financial Planning and Analysis 1Rancho Cordova, CA$DOEDirect01/21/2020PROO,
102 184222 Designer 3- Piping 1Newport News, VA$27.64 to $36.35 DOE6 months01/21/2020ENGO,
103 184223 Sr Analyst, Cost Accounting 1Rancho Cordova, CA$DOE6 Months01/21/2020PROO,
104 184224 Systems Engineer 4 1Mesa, AZ$DOE10 Months01/21/2020ENGO, S
105 184225 Material Planner 1Redmond, WA$DOEDirect01/21/2020MANO,
106 184227 Retail Sales Specialist A 1Chicago, IL$DOE12 Months01/21/2020ADMO,
107 184230 Manufacturing Staging Technician 1Frederick, MDUp to $18.00 DOE12 Months01/21/2020MANO,
108 184231 Manufacturing Dispatch Operator 1Frederick, MDUp to $19.80 DOE12 Months01/21/2020MANO,
109 184232 Manufacturing Engineer 1Bothell, WA$DOE12 months01/21/2020ENGO,
110 184157 Warehouse Associate 1Tracy, CA$DOE12 mos01/20/2020GENO,
111 184158 Warehouse Associate 1Tracy, CA$DOE12 mos01/20/2020GENO,
112 184159 Warehouse Associate 1Tracy, CAUp to $16.00 DOE12 mos01/20/2020GENO,
113 184160 Flight Simulator Design Engineer 4 1Berkeley, MO$DOE6 Months01/20/2020ENGO, S
114 184161 Manufacturing Support Coordinator 1Carlsbad, CAUp to $14.50 DOE6 mos01/20/2020GENO,
115 184162 Flight Simulator Design Engineer 4 1Berkeley, MO$DOE6 Months01/20/2020ENGO, S
116 184163 Manufacturing Engineering Associate 1Phoenix, AZUp to $25.00 DOE18 Months01/20/2020MANO,
117 184164 Inspector 1Oldsmar, FL$DOE12 months01/20/2020MANO,
118 184165 General Ledger/AR Accountant 1Anaheim, CA$40 to $42.00 DOE6 Months01/20/2020PROO,
119 184166 Industrial Engineer 2 10Everett, WA$DOE6 Months01/20/2020ENGO,
120 184168 Industrial Engineer 2 1Everett, WA$DOE6 Months01/20/2020ENGO,
121 184169 Senior Manager, Quality and Mission Assurance 1Camden, AR$DOEDirect01/20/2020ENGO, OM
122 184170 Product Repair/Mod Technician C 1Eglin AFB, FL$DOE12 Months01/20/2020GENO, S
123 184171 Product Repair/Mod Technician C 2Eglin AFB, FL$DOE12 Months01/20/2020GENO, S
124 184172 Product Repair/Mod Technician C 1Eglin AFB, FL$DOE12 Months01/20/2020GENO, S
125 184173 APG Mechanic 1Greenville, SC$DOE8 months01/20/2020GENO,
126 184174 Product Repair/Mod Tech C 1Eglin AFB, FL$DOE11 MONTHS01/20/2020MANO, S
127 184175 Material Handler 1Grand Island, NY$DOE11 Months01/20/2020GENO,
128 184176 HRIS Analyst 1Irving, TX$DOE 01/20/2020PROO,
129 184177 Electro-Mechanical Inspector 1Simi Valley, CA$27 to $31.00 DOE6 Months01/20/2020MANO,
130 184180 Technical Illustrator I 1South Windsor, CT$DOE6 months01/20/2020ITO,
131 184181 Starlink Production Supervisor 1Hawthorne, CA$DOEDirect01/20/2020MANO,
132 184182 Production Coordinator 1Manassas, VA$DOE12 months01/20/2020MANO, S
133 184183 Production/Inventory Coordinator A 1North Charleston, SC$DOE6 Months01/20/2020GENHSM,
134 184187 Associate Technical Writer 1Santa Clara, CA$DOE7 Months01/20/2020PROO,
135 184188 Associate Equipment Operator 1Bohemia, NYUp to $18.00 DOE12 Months01/20/2020MANO,
136 184190 Associate Equipment Operator 1Bohemia, NY$DOE12 Months01/20/2020MANO,
137 184191 Project Management Specialist 2 1Long Beach, CA$DOE3 Months01/20/2020PROO,
138 184192 General Maintenance Worker 1Manassas, VA$DOE5 months01/20/2020GENO, I
139 184193 Electrician 1Manassas, VA$DOE6 months01/20/2020GENO, I
140 184134 Structural Analysis Engineer 4 1Berkeley, MO$DOE12 Months01/17/2020ENGO, OM
141 184135 Structural Analysis Engineer 3 1Berkeley, MO$DOE12 Months01/17/2020ENGO, OM
142 184136 Structural Analysis Engineer 2 1Berkeley, MO$DOE12 Months01/17/2020ENGO, OM
143 184137 Wire Design & Install Engineers 5 1Hazelwood, MO$DOE5 Months01/17/2020ENGO, OM
144 184139 Design and Analysis Engineer 4 1Hazelwood, MO$DOE11 Months01/17/2020ENGO,
145 184140 Customer Service Associate 1Skaneateles, NY$15.86 to $16.86 DOE1 year01/17/2020ADMO,
146 184141 Recruiter 1Arlington, TXUp to $40.00 DOE6 Months01/17/2020PROO,
147 184142 Design and Analysis Engineer 3 2Kirtland AFB, NM$DOE12 Months01/17/2020ENGO,
148 184143 Government Asset Management Supervisor 1Rocky Mount, NC$DOE12 MONTHS01/17/2020PROO,
149 184144 Cybersecurity Systems Engineer 2Arlington, TXUp to $65.00 DOE6 Months01/17/2020ITO, OM
150 184145 Electrophysics Engineer/Scientist 3 1Kirtland AFB, NM$DOE12 Months01/17/2020ENGO,
151 184146 Accounts Payable Clerk 1Rockville, MDUp to $24.00 DOE5 Months01/17/2020ADMO,
152 184147 Sr Java Application Programmer 6Baton Rouge, LA$49.32 to $61.65 DOE4 years01/17/2020ITO,
153 184148 Production/Inventory Coordinator B 1Albuquerque, NM$DOE12 Months01/17/2020GENO,
154 184154 Inspector 1Oldsmar, FL$DOE11 months01/17/2020MANO,
155 184155 Manufacturing Associate 1Carlsbad, CAUp to $13.59 DOE12 Months01/17/2020MANO,
156 184106 Scientist II 1Pleasanton, CAUp to $24.76 DOE12 mos01/16/2020ENGO,
157 184108 Operator II, Manufacturing 1West Hills, CAUp to $15.00 DOE12 mos01/16/2020GENO,
158 184109 Manufacturing Technician I 1Carlsbad, CAUp to $13.97 DOE12 mos01/16/2020MANO,
159 184110 Scientist I 1Carlsbad, CA$DOE12 mos01/16/2020ENGO,
160 184111 Scientist I - R&D 1Carlsbad, CA$DOE 01/16/2020ENGO,
161 184115 Receiving Inspector 1Torrance, CA$19 to $28.00 DOE4 Months01/16/2020MANO,
162 184116 Production Technician 1Salt Lake City, UTUp to $15.00 DOE6 Months01/16/2020MANO,
163 184120 Manufacturing Technician 2Arlington, TXUp to $20.00 DOE6 Months01/16/2020MANO, OM
164 184121 Assembler 2Broken Arrow, OKUp to $28.00 DOE6 Months01/16/2020MANO, S
165 184122 Staff Software Development Analyst 5 1El Segundo, CA$70 to $72.00 DOE1 year01/16/2020ITO,
166 184123 Material Handler 1San Diego, CAUp to $15.00 DOE12 Months01/16/2020GENO,
167 184125 Material Handler 1San Diego, CAUp to $15.00 DOE12 Months01/16/2020GENO,
168 184127 Assembler 1Acton, MA$17.66 to $19.43 DOE6 months01/16/2020MANO,
169 184129 Automation Controls Engineer 1Logan, UTUp to $50.00 DOE12 Months01/16/2020ENGO,
170 184130 Production Mechanic 10Stuart, FLUp to $30.00 DOE6+ Months01/16/2020MANO,
171 184086 Product Acceptance Specialist A 1Mesa, AZ$DOE12 Months01/15/2020MANO,
172 184087 Employee Data Management Specialist 1 1Hazelwood, MO$DOE6 Months01/15/2020PROO,
173 184088 Numerical Control Programmer 2 3Palmdale, CA$43 to $45.00 DOE1 year01/15/2020MANO, S
174 184089 Python/PySpark Developer 1Carlsbad, CAUp to $67.52 DOE11 mos01/15/2020ITO,
175 184090 MSR I/II 1Melbourne, FL$17.49 to $21.00 DOE6 months, CTH01/15/2020ADMO,
176 184091 Recruiting Admin 1Norfolk, VAUp to $30.00 DOE6 Months01/15/2020ADMO,
177 184092 Shipping/Receiving Specialist A 1Smithfield, PA$DOE12 Months01/15/2020GENO,
178 184094 Digital Signal Processing Engineer 1Greenville, TXUp to $80.00 DOE6 Months01/15/2020ITO, TS, SCI
179 184096 Procurement Clerk 1Goleta, CA$16 to $20.00 DOE10 Months01/15/2020ADMO,
180 184098 Electronics Technician Maintenance I 1Coronado Island, CA$DOE3 months01/15/2020MANO, I
181 184100 General Maintenance Worker 1Coronado Island, CA$DOE4 months01/15/2020GENO, I
182 184101 Quality Control Inspector 1San Antonio, TX$DOE12 months01/15/2020MANO,
183 184102 Manufacturing Engineer 1Ocala, FLUp to $55.00 DOE6 Months01/15/2020ENGHSM,
184 184104 Supply Chain Operations Coordinator 2 - 2nd Shift 1Redondo Beach, CAUp to $23.00 DOE1 year01/15/2020MANO,
185 184105 Electronics Assembler 3Phoenix, AZ$14 to $15.00 DOE6 Months01/15/2020MANO,
186 184054 Scientist 1South San Francisco, CAUp to $45.01 DOE6 mos01/14/2020ENGO,
187 184057 Production Technician 1Logan, UTUp to $15.00 DOE12 mos01/14/2020MANO,
188 184059 Electrical Design and Analysis Engineer 4 1Germantown, MD$DOE12 Months01/14/2020ENGO,
189 184061 Software Engineer 3 1Long Beach, CA$DOE12 Months01/14/2020ITO,
190 184063 Mechanical Engineer 2Broken Arrow, OKUp to $65.00 DOE6 Months01/14/2020ENGO, S
191 184069 Material Handler 1Oakwood Village, OHUp to $12.00 DOE6 Months01/14/2020GENO,
192 184070 Assembler 1Manassas, VA$DOE12 months01/14/2020GENO,
193 184072 Lab Technician 1Santa Clara, CA$DOE12 Months01/14/2020MANO,
194 184074 Principal Engineer Industrial 3 1Patuxent River, MD$45 to $47.00 DOE1 year01/14/2020ENGO, S
195 184075 Staff Software Engineer 2Melbourne, FLUp to $85.00 DOE1 year01/14/2020ITO, OM
196 184079 Manufacturing Operator 1Grand Island, NYUp to $14.50 DOE3 Months01/14/2020MANO,
197 184080 Manufacturing Operator 1Grand Island, NYUp to $14.50 DOE3 Months01/14/2020MANO,
198 184083 Assembler I 1Lancaster, NY$DOE4 MONTHS01/14/2020GENO,
199 184085 Civil Engineer 1Columbia, MD$DOE6 months01/14/2020ENGO,
200 184016 Finance Assistant 1Needham, MAUp to $37.51 DOE4 mos01/13/2020PROO,
201 184017 Software Engineer 4 2Colorado Springs, CO$DOE12 months01/13/2020ITO,
202 184020 Software Engineer 2 3Colorado Springs, CO$DOE12 months01/13/2020ENGO,
203 184021 Software Engineer 3 2Colorado Springs, CO$DOE12 Months01/13/2020ITO,
204 184023 Customer Service Associate II 1South Chicago, IL$14 to $17.00 DOE6 months01/13/2020ADMO,
205 184024 Reliability Engineer 1Riviera Beach, FL$DOE12 months01/13/2020ENGO, TS
206 184025 Electrical Design and Analysis Engineer 4 1Germantown, MD$DOE12 Months01/13/2020ENGO,
207 184027 Visitor Relations Specialist A 5Mukilteo, WA$DOE8 Months01/13/2020PROO,
208 184030 Master Scheduler 1Peachtree city, GA$20 to $25.00 DOE9 Months01/13/2020ADMO,
209 184031 Principle Cyber Operator 1Aurora, COUp to $59.02 DOE1 year01/13/2020ITO, TS
210 184033 Cyber System Administrator 1Schriever Air Force Base, COUp to $42.78 DOE1 year01/13/2020ITO, TS
211 184037 Cyber System Administrator 2Schriever Air Force Base, COUp to $41.88 DOE1 year01/13/2020ITO, TS
212 184038 Cyber System Administrator 1Schriever Air Force Base, COUp to $42.05 DOE1 year01/13/2020ITO, TS
213 184039 Financial Analyst 1Grand Prairie, TX$40 to $50.00 DOE3 Months01/13/2020PROO,
214 184041 Purchasing Manager 1Grand Prairie, TXUp to $35.00 DOE9 Months01/13/2020PROO,
215 184043 Communications Rep 1Orlando, FL$DOE12 months01/13/2020PROO, OM
216 184046 Principle Cyber Operator 2Vandenberg Air Force Base, CAUp to $64.92 DOE1 year01/13/2020ITO, TS
217 184047 Manufacturing Inventory Floor Controller 1Carlsbad, CAUp to $15.00 DOE12 Months01/13/2020GENO,
218 184048 Procurement Representative 1Jacksonville, FL$DOE9 months01/13/2020PROO, S
219 184049 Business Process Analyst - DOC Modernization 1Baton Rouge, LA$36.14 to $45.18 DOE4.5 years, CTH01/13/2020PROO,
220 184050 Principal Computer Systems Analyst 1Melbourne, FLUp to $45.00 DOE1 year01/13/2020ITO,
221 184051 System Engineer 2 (Data Analyst) 1Melbourne, FL$38 to $40.00 DOE1 year01/13/2020ITO,
222 184052 Material Handler 1Oakwood Village, OH$DOE12 Months01/13/2020GENO,
223 183987 Legal Administrator C 1Chicago, IL$DOE3 months01/10/2020ADMO,
224 183989 Facilities Project Administrator 3 3Hazelwood, MO$DOE12 months01/10/2020PROO,
225 183990 Manufacturing Engineer 3Ocala, FLUp to $55.00 DOE7 Months01/10/2020ENGO,
226 183991 Writer Editor 4 1Germantown, MD$DOE12 months01/10/2020PROO,
227 183994 Procurement Analyst 1Orlando, FLUp to $20.00 DOE12 Months01/10/2020ADMHSM,
228 183996 Wireless / RF Network Services Specialist 1Raleigh, NCUp to $54.25 DOE6 months, CTH01/10/2020ITO, PTT
229 183998 System Administrator 1Lexington, KY$DOE9months01/10/2020ITO, I
230 184004 Sr Windows Monitoring Administrator Solar Winds 1Eagan, MNUp to $63.42 DOE6 months, CTH01/10/2020ITO, PPT
231 184005 Scientist 1High Point, NC$DOE5 Months01/10/2020ENGHSM,
232 184007 Quality Engineer 3 (NDT/NDE) 1Tupelo, MS$DOE 01/10/2020MANO, OM
233 184008 Business Intelligence Analyst 2 1Mesa, AZ$DOE6 Months01/10/2020PROO,
234 184009 Business Intelligence Analyst 3 1Mesa, AZ$DOE6 months01/10/2020PROO,
235 184010 Scientist 1Madison, WIUp to $23.44 DOE9 Months01/10/2020ENGO,
236 184013 Technical Editor and Writer 1Schriever Air Force Base, COUp to $45.83 DOE6 months01/10/2020PROO, TS
237 184014 Systems Engineer 1Schriever Air Force Base, COUp to $42.78 DOE1 year01/10/2020ITO, TS
238 184015 Principal Cyber Operator 1Colorado Springs, COUp to $59.02 DOE1 year01/10/2020ITO, TS
239 183960 Scientist I (Molecular Biology) 1West Sacramento, CA$DOE12 mos01/09/2020ENGO,
240 183961 Scientist I (Molecular Biology) 1West Sacramento, CA$DOE12 mos01/09/2020ENGO,
241 183963 Project Support - Global Translation Services 1Pennsylvania - Remote, Up to $26.26 DOE12 mos01/09/2020PROO,
242 183964 Technical Designer 3 5Oklahoma City, O$DOE6 months01/09/2020ENGO, OM
243 183965 Technical Designer 2 1Kennedy Space Center, FL$DOE12 months01/09/2020ENGHSM,
244 183967 Structural Analysis Engineer 3 5Oklahoma City, OK$DOE6 Months01/09/2020ENGO, OM
245 183968 Technical Design 4 5Oklahoma City, OK$DOE6 months01/09/2020ENGO, OM
246 183969 Structural & Payload Design Engineer 3 5Oklahoma City, OK$DOE6 Months01/09/2020ENGO, OM
247 183970 Structural Analysis Engineer 4 5Oklahoma City, OK$DOE6 Months01/09/2020ENGO, OM
248 183971 Engineering Aide 1Orlando, FLUp to $50.00 DOE12 Months01/09/2020MANO,
249 183972 Structural & Payload Design Engineer 4 5Oklahoma City, OK$DOE2001/09/2020ENGO, OM
250 183973 Contracts Administrator 1Redmond, WA$DOE3 Months CTH01/09/2020PROO,
251 183974 Assembler 3Santa Maria, CA$DOE6 months01/09/2020MANO,
252 183976 Electronic Assembler II 1Costa Mesa, CA$DOE9 MONTHS01/09/2020MANO,
253 183977 Assembler 1Asheville, NC$DOE12 Months01/09/2020MANHSM,
254 183978 Project Manager 1McLean, VAUp to $62.65 DOE6 months, CTH01/09/2020ITHSM, PPT
255 183981 Mechanical Engineer 1Moorestown, NJ$DOE12 months01/09/2020ENGO, OM
256 183983 Maintenance Mechanic 1Pinellas Park, FL$DOE12 months01/09/2020MANO,
257 183985 Software Engineer 1Grand Prairie, TX$31.25 to $48.08 DOEDirect01/09/2020ITO,
258 183986 Accounting Assistant 3 1Huntsville, ALUp to $17.00 DOE6 months01/09/2020ADMO,
259 183926 Distribution Technician 1Breinigsville, PA$DOE12 mos01/08/2020MANO,
260 183927 Accountant 2 1Hazelwood, MO$DOE12 Months01/08/2020PROO,
261 183928 Contracts & Pricing Representative 7Hazelwood, MO$DOE11 Months01/08/2020PROO,
262 183930 Contracts & Pricing Representative 3Hazelwood, MO$DOE11 Months01/08/2020PROO,
263 183931 Laser Assembly Technician 1Hilton Head, SC$13.5 to $15.00 DOE12 Months01/08/2020MANO,
264 183932 Structural/Mechanical instructor 1Jacksonville, FL$DOE12 Months01/08/2020PROO,
265 183934 Electrical Engineer III 2Anaheim, CA$55 to $70.00 DOE12 Months01/08/2020ENGO,
266 183935 Tool Designer 1Palmdale, CA$DOE12 Months01/08/2020ENGO, S
267 183937 Performance Testing Engineer 1Carlsbad, CAUp to $56.00 DOE12 Months01/08/2020ITO,
268 183938 Software Engineer III 1South San Francisco, CAUp to $112.53 DOE9 Months01/08/2020ITO,
269 183939 Accounts Receivable Specialist 1Tewksbury, MAUp to $24.00 DOE6 Months01/08/2020ADMO,
270 183941 Technician 1Orlando, FLUp to $25.00 DOE12 Months01/08/2020MANHSM,
271 183942 Sr Accountant 1Sylmar, CAUp to $35.00 DOE3 Months01/08/2020PROO,
272 183945 Lab Technician 1Frederick, MDUp to $18.00 DOE12 Months01/08/2020MANO,
273 183950 Oracle eBusiness DBA 1Raleigh, NCUp to $63.42 DOE6 months, CTH01/08/2020ITO, PPT
274 183955 Customer Service Representative 1Gainesville, TXUp to $17.00 DOE5 Months01/08/2020ADMO,
275 183958 Senior Java Developer 1McLean, VAUp to $91.69 DOE6 months, CTH01/08/2020ITO, PPT
276 183959 Software Engineer 1Fort Worth, TX$DOE12 Months01/08/2020ITO, I, S
277 183895 Purchasing Assistant 1King of Prussia, PA$20 to $24.00 DOE11 months01/07/2020ADMO,
278 183896 Manufacturing Technician I 1Frederick, MDUp to $18.00 DOE12 mos01/07/2020MANO,
279 183898 Shipping/Receiving Specialist B 1Oklahoma City, OK$DOE12 months01/07/2020GENO, S
280 183899 Manufacturing Technician I 1Frederick, MDUp to $18.00 DOE12 mos01/07/2020MANO,
281 183900 Senior IT Supplier/Commodity Program Leader 2Mesa, AZ$DOE6 Months01/07/2020PROO,
282 183904 Information Systems Security Officer (ISSO) L3 1Rosslyn, VA$DOE11 months01/07/2020ITO, S
283 183905 Information Systems Security Officer (ISSO) L5 1Rosslyn, VA$DOE11 MONTHS01/07/2020ITO, S
284 183906 Embedded Software Engineer 1Marietta, GA$DOE12 months01/07/2020ITO, S
285 183908 Systems Engineer 5Fort Worth, TX$DOE12 months01/07/2020ENGO,
286 183911 Onsite Mobile Application Administrator 1Milwaukee, WI$DOE6 months01/07/2020ITO,
287 183913 Lab Technician 1Axis, AL$23 to $25.00 DOE1 year01/07/2020MANO,
288 183916 EHS Coordinator 1Carlsbad, CAUp to $22.00 DOE12 mos01/07/2020PROO,
289 183917 Print Producer 1Carlsbad, CAUp to $30.00 DOE6 mos01/07/2020PROO,
290 183919 Engineer Industrial 2 1St. Augustine, FL$35 to $36.50 DOE1 year01/07/2020MANO,
291 183920 Desktop Support Technician 1Greenville, SC$DOE6 months01/07/2020ITO,
292 183921 Tanium Systems Administrator 1Raleigh, NCUp to $51.95 DOE6 months, CTH01/07/2020ITO, PPT
293 183922 Web Designer 1Fort Bragg, NC$DOE6 months01/07/2020ITO, S
294 183870 Systems Engineer 4 15Oklahoma City, OK$DOE6 Months01/06/2020ENGO, OM
295 183871 Systems Engineer 3 15Oklahoma City, OK$DOE6 months01/06/2020ENGO, OM
296 183872 Systems Engineer 5 10Oklahoma City, OK$DOE6 months01/06/2020ENGO, OM
297 183873 Systems Engineering Technician 3 1Oklahoma City, OK$DOE6 Months01/06/2020ENGO, OM
298 183874 Systems Engineering Technician-General 5Oklahoma City, OK$DOE6 months01/06/2020ENGO, S
299 183875 Manufacturing Operator 1Carlsbad, CA$DOE12 mos01/06/2020MANO,
300 183876 Operator II 1West Hills, CAUp to $16.00 DOE13 mos01/06/2020MANO,
301 183878 Recruiting/Mobility Coordinator D 1Hazelwood, MO$DOE12 Months01/06/2020ADMHSM,
302 183880 Production/Inventory Coordinator B 1Jacksonville, FL$DOE12 Months01/06/2020GENHSM,
303 183882 Recruiter Specialist 1 5Hazelwood, MO$DOE12 months01/06/2020PROHSM,
304 183884 A&P Aircraft Mechanic 1San Antonio, TX$DOE 01/06/2020MANO,
305 183887 Manufacturing Technician 1Carlsbad, CAUp to $14.00 DOE12 Months01/06/2020MANO,
306 183853 Data Analyst 1Carlsbad, CAUp to $22.00 DOE12 mos01/03/2020PROO,
307 183854 Mechanical Engineer 1Lexington, KY$DOE10 MONTHS01/03/2020ENGO, I
308 183855 Technical Data Designer 1 5Fort Walton Beach, FL$DOE6 Months01/03/2020ITO, OM
309 183857 Technical Writer 1Greenville, SC$DOE9 months01/03/2020PROO,
310 183842 Scientist I 1Cincinnati, OHUp to $21.01 DOE12 MOS01/02/2020ENGHSM,
311 183843 Supply Chain Specialist III 1Allentown, PA$DOE6 mos01/02/2020MANO,
312 183844 Avionic Technician 4Greenville, SC$DOE7 months01/02/2020MANO,
313 183845 Inspector 1Oldsmar, FL$DOE12 MONTHS01/02/2020MANO,
314 183847 Product Acceptance Specialist C 13Stennis Space Center, MS$DOE12 Months01/02/2020MANO,
315 183851 Electrical Technical Designer 3 5Tukwila, WA$DOE6 months01/02/2020ENGO,
316 183852 Brand Communications Specialist 1Mukilteo, WA$DOE6 months01/02/2020PROO,
317 183832 Test Engineer 1Carson, CA$28 to $40.00 DOE9 Months12/31/2019ENGO,
318 183835 General Laborer I 1Santa Maria, CA$DOE6 months12/31/2019GENO,
319 183836 Sr Automation Factory Technician 1Carlsbad, CA$DOE6 Months12/31/2019MANO,
320 183838 GEC8I2-Logistics Representative 2 1Tinker AFB, OK$DOE8 months12/31/2019MANO, OM
321 183813 Associate Embedded Software Engineer 4Camden, NJUp to $44.00 DOE12 Months12/30/2019ITO,
322 183814 Associate Embedded Software Engineer 3Camden, NJUp to $44.00 DOE12 Months12/30/2019ITO, OM
323 183815 Associate Embedded Software Engineer 1Camden, NJUp to $44.00 DOE12 Months12/30/2019ITO, OM
324 183816 Associate Embedded Software Engineer 1Camden, NJUp to $44.00 DOE12 Months12/30/2019ITO, OM
325 183817 Lead Embedded Software Engineer 1Camden, NJUp to $48.00 DOE12 Months12/30/2019ITO, OM
326 183818 Software Engineering Specialist 3Camden, NJUp to $48.00 DOE12 Months12/30/2019ITO, OM
327 183819 Software Engineering Specialist 3Camden, NJUp to $48.00 DOE12 Months12/30/2019ITO, S
328 183820 Contract Administrator 1Huntsville, AL$DOE12 months12/30/2019PROO,
329 183821 Information Assurance Systems Security Engineer 1Camden, NJUp to $43.00 DOE12 Months12/30/2019ITO, S
330 183823 Systems Engineer, Senior Associate 5Camden, NJUp to $39.00 DOE12 Months12/30/2019ITO, S
331 183824 Administrative Assistant 1Owego, NY$DOE15 Months12/30/2019ADMO,
332 183825 Systems Engineer, Specialist 5Camden, NJUp to $43.00 DOE12 Months12/30/2019ITO, S
333 183829 Equipment Services Technician 1Pleasanton, CAUp to $30.83 DOE12 Months12/30/2019MANO,
334 183830 Assembler II 1Carson, CA$DOE8 MONTHS12/30/2019GENO,
335 183803 Assembler 7Ann Arbor, MIUp to $14.00 DOE6 Months12/27/2019MANO,
336 183798 Structural Analysis Engineer 2 3Huntsville, AL$DOE12 Months12/26/2019ENGO,
337 183800 Manufacturing Operator 1Fremont, CA$DOE12 Months12/26/2019MANO,
338 183801 Manufacturing Operator 1Asheville, NC$DOE5 Months12/26/2019MANO,
339 183793 UX/UI Hybrid Designer 1Tukwila, WA$DOE12 Months12/24/2019PROO,
340 183797 Quality Engineer 1Santa Clara, CAUp to $33.00 DOE12 Months12/24/2019ENGO,
341 183768 Material Handler 1Huntsville, AL$DOE3 Months12/23/2019GENO,
342 183769 Design Checker 1Orlando, FLUp to $65.00 DOE12 Months12/23/2019ENGO, S
343 183773 Systems Engineer 1Riviera Beach, FL$DOE10 months12/23/2019ENGO, TS
344 183774 Aircraft Painter C 1North Charleston, SC$DOE6 Months12/23/2019GENO,
345 183775 Aircraft Painter A 20North Charleston, SC$DOE6 months12/23/2019GENO,
346 183776 Aircraft Painter B 20North Charleston, SC$DOE6 Months12/23/2019GENO,
347 183779 Chemist/Engineer 1Exston, PA$DOE11 months12/23/2019ENGO,
348 183785 Marketing Project Manager 1Carlsbad, CAUp to $34.00 DOE9 Months12/23/2019PROO,
349 183787 Records and Information Mgmt (RIM) System Analyst / Developer 1Baton Rouge, LA$49.32 to $61.65 DOE4.5 years12/23/2019ITO,
350 183789 Forms Management Specialist 3Mesa, AZ$DOE6 Months12/23/2019PROO,
351 183790 General Laborer II 1Santa Maria, CA$DOE8 months12/23/2019GENO,
352 183791 Structural & Payload Design Engineer 3 2Tukwila, WA$DOE12 Months12/23/2019ENGO,
353 183792 Structural & Payload Design Engineer 4 2Tukwila, WA$DOE12 Months12/23/2019ENGHSM,
354 183752 Systems Engineer 6 2St. Louis City, MO$DOE12 MONTHS12/20/2019ENGO,
355 183754 Systems Engineer 4 2St. Louis City, MO$DOE12 MONTHS12/20/2019ENGO,
356 183755 Systems Engineer 5 2St. Louis City, MO$DOE12 MONTHS12/20/2019ENGO,
357 183756 Intern Simulator Technician 2Arlington, TXUp to $17.50 DOE6 Months12/20/2019MANO,
358 183757 Assembler B 10El Segundo, CA$DOE5 Months12/20/2019MANHSM, OM
359 183758 Flight Line Inspector 1Mesa, AZ$DOE10 months12/20/2019MANO,
360 183760 Pricing Agreement Representative 1Grand Island, NYUp to $20.00 DOE11 Months12/20/2019ADMO,
361 183764 Wire Design & Installation Engineer 3 10Tukwila, WA$DOE6 Months12/20/2019ENGO,
362 183765 Wire Design & Installation Engineer 4 10Tukwila, WA$DOE6 Months12/20/2019ENGO,
363 183766 Wire Design & Installation Engineer 5 5Tukwila, WA$DOE6 Months12/20/2019ENGO,
364 183722 Quality Control Technician 1Lenexa, KS$DOE4 mos12/19/2019MANO,
365 183723 Quality Control Technician 1Lenexa, KS$DOE12 MOS12/19/2019MANO,
366 183725 Junior SQL Developer 1Swedesboro, NJUp to $35.00 DOE6 mos12/19/2019ITO,
367 183727 Building Maintenance Technician 1Grand Island, NYUp to $22.51 DOE4 mos12/19/2019MANO,
368 183728 Systems Engineer 10Fort Worth, TX$DOE15 months12/19/2019ENGO, OM
369 183729 Electrical Engineer 1Fort Worth, TX$DOE15 MONTHS12/19/2019ENGO, OM
370 183730 Manufacturing Operations Support 5Torrance, CA$22 to $30.00 DOE5 Months12/19/2019MANO,
371 183731 Electrical Engineer 1Fort Worth, TX$DOE15 MONTHS12/19/2019ENGO, OM
372 183736 Logistics Development Specialist 1San Diego, CA$DOE3-6 Months12/19/2019PROO, OM
373 183738 Aeronautical Engineer 1Greenville, SC$DOE12 months12/19/2019ENGO,
374 183741 Business Analyst - Modernization 2Baton Rouge, LA$36.14 to $45.18 DOE4.5 years12/19/2019PROO,
375 183681 Logistics Development Specialist 2San Diego, CA$DOE3-6 month contract12/18/2019PROO, OM
376 183682 Aircraft Mechanic II 10Jacksonville, FL$DOE12 Months12/18/2019MANHSM,
377 183688 Network Planning Engineer 1Camden, NJUp to $43.00 DOE12 Months12/18/2019ITO, OM
378 183691 General Laborer I 1Santa Maria, CA$DOE6 months12/18/2019GENO,
379 183693 Test & Evaluation Lab Technician 3 1Huntsville, AL$DOE6 Months12/18/2019MANO,
380 183694 Test & Evaluation Lab Technician 3 1Huntsville, AL$DOE6 Months12/18/2019MANO,
381 183697 General Laborer I 1Santa Maria, CA$DOE6 MONTHS12/18/2019GENO,
382 183699 Assembler I 1Santa Maria, CA$DOE6 MONTHS12/18/2019GENO,
383 183700 General Laborer I 1Santa Maria, CA$DOE6 MONTHS12/18/2019GENO,
384 183702 Expeditor 1Simi Valley, CA$25 to $28.00 DOE5 Months12/18/2019GENO,
385 183703 Retail Operations Specialist 2 1Seattle, WA$DOE12 Months12/18/2019ADMO,
386 183706 Recruiter 1San Leandro, CAUp to $40.00 DOE12 Months12/18/2019PROO,
387 183711 Network and Telecom Professional 1Salt Lake City, UTUp to $30.00 DOE6 Months12/18/2019ITO,
388 183712 PC/Network Technician 4 1Melbourne, FLUp to $30.00 DOE9 months12/18/2019ITO, S
389 183715 Senior Application Programmer - Modernization 2Baton Rouge, LA$49.32 to $61.65 DOE4.5 years12/18/2019ITO,
390 183716 Systems Engineer 10Fort Worth, TX$DOE15 months12/18/2019ITO, S
391 183646 IT Security Analyst 1Rosslyn, VAUp to $62.65 DOE3-6 months, CTH12/17/2019ITO, TS
392 183651 Process Engineering Lab Support 1West Greenwich, RIUp to $22.95 DOE4 mo12/17/2019MANO,
393 183659 Information Systems Analyst 1Hood River, OR$DOE12 Months12/17/2019ITO,
394 183660 End User Computing Specialist 1Salt Lake City, UTUp to $20.00 DOE12 Months12/17/2019ITO,
395 183661 End User Computing Specialist 1San Diego, CAUp to $27.00 DOE12 Months12/17/2019ITO,
396 183664 End User Computing Specialist 1Grand Rapids, MIUp to $25.00 DOE12 Months12/17/2019ITO,
397 183665 End User Computing Specialist 1Cincinnati, OHUp to $17.00 DOE12 Months12/17/2019ITO,
398 183671 Data Admin Coordinator C 2Renton, WA$DOE3 Months12/17/2019ADMO,
399 183672 Packaging Technician 1Indianapolis, INUp to $13.75 DOE12 Months12/17/2019GENO,
400 183673 Document Control Specialist 1Marion, MA$DOE12 months12/17/2019ADMO,
401 183674 Assembler 1Oldsmar, FL$DOE12 months12/17/2019MANO,
402 183677 Manufacturing Planner 3 3Ridley Park, PA$DOE9 MONTHS12/17/2019MANO,
403 183608 Systems Engineer 4 1Kennedy Space Center, FL$DOE6 Months12/16/2019ENGHSM,
404 183609 Propulsion Engineer 4 1Kennedy Space Center, FL$DOE6 MONTHS12/16/2019ENGO,
405 183610 Propulsion Engineer 5 1Kennedy Space Center, FL$DOE6 Months12/16/2019ENGHSM,
406 183611 6E3CI5-Propulsion Engineer 5 1Kennedy Space Center, FL$DOE6 MONTHS12/16/2019ENGO,
407 183612 Quality Inspector 1Torrance, CA$19 to $28.00 DOE3 Months12/16/2019MANO,
408 183613 Propulsion Engineer 4 1Kennedy Space Center, FL$DOE6 months12/16/2019ENGO,
409 183615 Painter 1Cypress, CAUp to $17.00 DOE6+ Months12/16/2019MANO,
410 183617 Sr Application Programmer (FileNet) 1Baton Rouge, LA$49.32 to $61.65 DOE4.5 years12/16/2019ITO,
411 183618 QC Scientist 1Cincinnati, OHUp to $23.00 DOE12 Months12/16/2019ENGO,
412 183619 Scientist 1Eugene, ORUp to $23.00 DOE12 Months12/16/2019ENGO,
413 183620 Front End Web Developer 1Tukwila, WA$DOE12 Months12/16/2019ITO,
414 183624 Tax Accountant 1Bethesda, MDUp to $28.00 DOE12 Months12/16/2019PROO,
415 183628 Application Programmer 5Baton Rouge, LA$36.44 to $45.55 DOE4.5 years12/16/2019ITO,
416 183636 Bonder 1Cypress, CA$12.5 to $14.00 DOE6+ Months12/16/2019GENO,
417 183637 Procurement Agent 2 1Chantilly, VA$DOE9 Months12/16/2019PROO, TS
418 183639 Procurement Agent 4 1Springfield, VA$DOE9 Months12/16/2019PROO, TS
419 183640 Sr Application Programmer - Lead Architect 4Baton Rouge, LA$49.32 to $61.65 DOE4.5 years12/16/2019ITO,
420 183585 Management Assistant 1Rancho Bernardo, CA$DOE6 Months12/13/2019ADMO,
421 183586 Quality Inspector 2Millersville, MDUp to $22.00 DOE6 Months12/13/2019MANO,
422 183587 Administrative Assistant 1San Leandro, CAUp to $20.00 DOE12 Months12/13/2019ADMO,
423 183592 Lead Logistics Clerk 1Coon Rapids, MN$DOE12 months12/13/2019MANO,
424 183596 Logistics Clerk 1Coon Rapids, MN$DOE12 months12/13/2019MANO,
425 183601 Wire Design & Installation Engineer 2 2Kennedy Space Center, FL$DOE12 Months12/13/2019ENGO,
426 183604 Wire Design & Installation Engineer 3 2Kennedy Space Center, FL$DOE12 Months12/13/2019ENGO,
427 183606 Software Developer 1Wright-Patterson Air Force Base, OH$DOE12 months12/13/2019ITO, TS
428 183556 Production Clerk 1Louisville, KY$DOE9 months12/12/2019GENO,
429 183557 Technical Data Designer 2 1Oklahoma City, OK$DOE6 Months12/12/2019ENGO,
430 183558 Contractor Program Security Officer (CPSO) / Facility Security Officer (FSO) 1San Leandro, CA$90000 to $120000.00 DOEDirect12/12/2019PROO, TS
431 183559 Material Handler 1Carlsbad, CAUp to $14.00 DOE12 Months12/12/2019GENO,
432 183560 Software Engineer 4 1Tukwila, WA$DOE12 Months12/12/2019ITO, TS
433 183562 Electrical Design & Analysis Engineer 3 1Tukwila, WA$DOE12 Months12/12/2019ENGO, TS
434 183563 Systems Engineer 3 1Tukwila, WA$DOE12 Months12/12/2019ENGO, TS
435 183564 Guidance Navigation and Control Engineer 4 1Tukwila, WA$DOE12 Months12/12/2019ENGO, TS
436 183565 Government Billing Specialist 1Rockville, MDUp to $28.00 DOE6 Months12/12/2019PROO,
437 183566 Wire Design & Install Engineer 3 1Tukwila, WA$DOE12 Months12/12/2019ENGO, TS
438 183567 Buyer 2Goleta, CA$27 to $33.00 DOE12 Months12/12/2019PROO,
439 183570 Design & Analysis Engineer 4 1Tukwila, WA$DOE12 Months12/12/2019ENGO, TS
440 183572 Migration Implementation Architect 1Baton Rouge, LA$49.32 to $61.65 DOE4.5 years12/12/2019ITO,
441 183579 General Mechanic Level 2 6Mesa, AZ$DOE12 Months12/12/2019MANO,
442 183581 Proposals Specialist 1Rancho Bernardo, CA$DOEDirect12/12/2019PROO, OM
443 183525 Shipping and Receiving Clerk 1Alpharetta, GAUp to $20.00 DOE6 Months12/11/2019GENO,
444 183528 Electromechanical Inspector 1Torrance, CA$19 to $28.00 DOE3 Months12/11/2019MANO,
445 183529 Tool Coordinator 2 1Berkeley, MO$DOE4 Months12/11/2019MANO,
446 183530 Embedded Software Engineer 3Orlando, FLUp to $65.00 DOE12 Months12/11/2019ITO, S
447 183531 Principal Engineer Systems Test 5Melbourne, FLUp to $49.00 DOE1 year12/11/2019ENGO, S
448 183533 Engineer Systems Test 2 5Melbourne, FLUp to $39.00 DOE1 year12/11/2019ENGO, S
449 183536 Product Support Manager 1Ayer, MAUp to $47.00 DOE6 Months12/11/2019PROO, S
450 183537 Special Test Equipment Engineer 4Littleton/Waterton, CO$DOE8 months12/11/2019ENGO,
451 183538 Electronics Assembler 1Millersville, MD$18 to $22.00 DOE12 Months12/11/2019MANO,
452 183542 R&D Technician 1Carson, CA$28 to $35.00 DOE9 Months12/11/2019MANO,
453 183543 CNC Operator 2Santa Rosa, CA$26 to $31.00 DOEDirect12/11/2019MANO,
454 183544 Assembler 4Oldsmar, FL$DOE12 months12/11/2019GENO,
455 183546 Logistics Management Analyst 2Tampa, FL$DOE 12/11/2019GENO, S
456 183550 Software Engineer 3 3Tukwila, WA$DOE12 Months12/11/2019ITO, TS
457 183551 Mechanical Systems Design & Analysis Engineer 4 1Tukwila, WA$DOE12 Months12/11/2019ENGO, TS
458 183486 Structural & Payload Design Engineer 2 3Huntsville, AL$DOE6 Months12/10/2019ENGO,
459 183487 Numerical Control Programmer 2 1Mesa, AZ$DOE6 MONTHS12/10/2019ENGO,
460 183488 Structural & Payload Design Engineer 3 1Huntsville, AL$DOE12 Months12/10/2019ENGHSM,
461 183489 Mechanical Design Engineer 2 1Orlando, FLUp to $65.00 DOE12 Months12/10/2019ENGO, S
462 183490 Numerical Control Programmer 3 1Mesa, AZ$DOE6 MONTHS12/10/2019ENGO,
463 183492 Mechanical Engineer 1Irvine, CA$50 to $80.00 DOE9 Months12/10/2019ENGO,
464 183494 Mechanical Engineer 1Ayer, MA$22.93 to $37.50 DOE11 Months12/10/2019ENGO,
465 183495 Business Analyst 3 4Baton Rouge, LA$36.14 to $45.18 DOE4.5 years12/10/2019PROO,
466 183496 Business Analyst 3 1Baton Rouge, LA$36.14 to $45.18 DOE4.5 years12/10/2019PROO,
467 183497 Numerical Control Programmer 4 5Mesa, AZ$DOE6 Months12/10/2019ENGO,
468 183498 Mechanical Designer 1Ayer, MA$19.63 to $38.46 DOE11 Months12/10/2019ENGO,
469 183500 Database Administrator 3 1Baton Rouge, LA$37.66 to $47.08 DOE4.5 years12/10/2019ITO,
470 183501 Manufacturing Technician 1Carlsbad, CAUp to $20.00 DOE6 Months12/10/2019MANO,
471 183506 Real Estate Specialist/Administrative Assistant 1El Segundo, CAUp to $30.00 DOE1 year12/10/2019ADMO,
472 183515 Equipment Engineer 1Santa Clara, CAUp to $35.00 DOE12 Months12/10/2019ENGO,
473 183516 Scientist 1South San Francisco, CAUp to $32.00 DOE12 Months12/10/2019ENGO,
474 183517 Validation Engineer 1West Hills, CA$DOE6 Months12/10/2019ENGO,
475 183518 Validation Engineer 1West Hills, CAUp to $32.93 DOE6 Months12/10/2019ENGO,
476 183519 Validation Engineer 1West Hills, CAUp to $32.93 DOE6 Months12/10/2019ENGO,
477 183520 Stock Assistant 1Syracuse, NY$DOE12 months12/10/2019MANO,
478 183437 Technician 1Orlando, FL$23 to $33.00 DOE1 year12/09/2019MANO, OM
479 183440 Model Shop Supervisor 1Ayer, MA$26.44 to $33.66 DOE6+ Months12/09/2019MANO,
480 183443 PC Network Support 2 2Redondo Beach, CAUp to $22.00 DOE1 year12/09/2019ITO,
481 183444 Program Manager 1Philadelphia, PA$45 to $50.00 DOE6 Months12/09/2019PROO,
482 183445 Machinist 1Goleta, CA$25 to $30.00 DOE9 Months12/09/2019MANO, I, S
483 183448 Billing and Accounts Receivable Specialist 1Norfolk, VAUp to $16.80 DOE6 Months12/09/2019ADMO,
484 183449 Employee Development Specialist 3 7Everett, WA$DOE3 Months12/09/2019MANO,
485 183455 Manufacturing Engineer 1Fort Worth, TX$DOE15 months12/09/2019ENGO, I
486 183464 Wire Design & Install Engineer 4 10Oklahoma City, OK$DOE9 Months12/09/2019ENGO, OM
487 183465 JTC_Electrical Engineer 1Fort Worth, TX$DOE15 months12/09/2019ENGO, TS
488 183466 Aeronautical Engineer 1Palmdale, CA$DOE15 MONTHS12/09/2019ENGO, TS
489 183467 Aeronautical Engineer 1Fort Worth, TX$DOE15 MONTHS12/09/2019ENGO, S
490 183470 Aeronautical Engineer 1Palmdale, CA$DOE15 months12/09/2019ENGO, TS
491 183471 Satellite Integration Technician 1Redmond, WA$DOEDirect12/09/2019MANO,
492 183472 Satellite Propulsion Technician 1Redmond, WA$DOEDirect12/09/2019MANO,
493 183473 Electrical Engineer 1Palmdale, CA$DOE15 months12/09/2019ENGO, S
494 183474 Flight Test Instrumentation Engineer 4Fort Worth, TX$DOE15 MONTHS12/09/2019ENGO, TS
495 183476 Satellite Solar Technician 1Redmond, WA$DOEDirect12/09/2019MANO,
496 183477 Flight Test Engineer 13Fort Worth, TX$DOE15 MONTHS12/09/2019ENGO, S
497 183478 Flight Test Engineer 1Fort Worth, TX$DOE15 MONTHS12/09/2019ENGO, S
498 183479 Electrical Engineer 1Fort Worth, TX$DOE15 months12/09/2019ENGO, TS
499 183481 Electrical Engineer 1Fort Worth, TX$DOE15 months12/09/2019ENGO, TS
500 183482 Flight Test Engineer 5Fort Worth, TX$DOE15 MONTHS12/09/2019ENGO, S
501 183483 Aeronautical Engineer 1Fort Worth, TX$DOE15 MONTHS12/09/2019ENGO, I
502 183418 Material Control Coordinator 1Rancho Bernardo, CA$DOE3 Months12/06/2019GENO,
503 183419 Electrical Engineer 1Palmdale, CA$DOE15 months12/06/2019ENGO, S
504 183420 Electrical Engineer 1Palmdale, CA$DOE15 MONTHS12/06/2019ENGO, S
505 183424 Systems Engineer 1Palmdale, CA$DOE15 MONTHS12/06/2019ENGO, S
506 183427 Electrical Design and Analysis Engineer 4 1El Segundo, CA$DOE10 Months12/06/2019ENGO,
507 183434 GMD Specialist 1Carlsbad, CAUp to $27.00 DOE12 mos12/06/2019PROO,
508 183374 Master Scheduler 3 1Arlington, TXUp to $50.00 DOE6+ months12/05/2019PROO,
509 183378 Build Reliability Engineer 1Seattle, WA$DOEDirect12/05/2019ENGO,
510 183379 Systems and Data Analyst 2 1Hazelwood, MO$DOE7 Months12/05/2019ITO,
511 183382 Mechanical Assembler 3Simi Valley, CA$20 to $25.00 DOE6 Months12/05/2019MANO,
512 183384 Project Manager 1Sunnyvale, CAUp to $75.00 DOE12 Months12/05/2019PROO,
513 183387 Column Chemistry Technician 1Sunnyvale, CAUp to $20.50 DOE2 Months12/05/2019ENGO,
514 183392 Software Developer 1Swedesboro, NJUp to $35.00 DOE12 Months12/05/2019ITO,
515 183397 Associate Industrial Engineer 2Melbourne, FL$36 to $37.00 DOE1 year12/05/2019ENGO,
516 183401 Mechanical Design Engineer 5Moorestown, NJ$DOE12 months12/05/2019ENGO, OM
517 183402 Logistics Clerk 1Golden Valley, MN$DOE3 MONTHS12/05/2019GENO,
518 183406 Production Test Technician 1Manassas, VA$DOE12 MONTHS12/05/2019MANO, S
519 183407 Shipping/Receiving Assistant 1Fort Worth, TX$DOE11 months12/05/2019GENO, I
520 183408 Software Engineer 1Orlando, FL$DOE5 MONTHS12/05/2019ITO, OM
521 183409 Software Engineer 2Orlando, FL$DOE5 MONTHS12/05/2019ITO, OM
522 183410 Electrical Engineer 1Palmdale, CA$DOE15 months12/05/2019ENGO, S
523 183411 Aeronautical Engineer 1Palmdale, CA$DOE15 months12/05/2019ENGO, S
524 183412 Electrical Engineer 1Palmdale, CA$DOE12 MONTHS12/05/2019ENGO, S
525 183350 Supply Chain Support Specialist 1Arlington, TXUp to $17 DOE6 Months12/04/2019ADMO,
526 183351 Supply Chain Support Specialist 1Rockwall, TX$DOE6 Months12/04/2019ADMO,
527 183352 Graphic Design Support III 1Batesville, IN$27.52 to $31.48 DOE10 months12/04/2019ADMO,
528 183361 Aircraft Survival Flight Equipment Technician 1Fort Bragg, NC$DOE6 MONTHS12/04/2019MANO, TS
529 183362 Material Handler 1Scotts Valley, CAUp to $25.00 DOE12 mmos12/04/2019GENO,
530 183365 Front End Web Developer 1Tukwila, WA$DOE12 Months12/04/2019ITO,
531 183366 Systems Analyst 1Midwest City, OK$DOE12 MONTHS12/04/2019ENGO,
532 183367 Production Control Support 1Manassas, VA$DOE12 months12/04/2019MANO,
533 183368 Media Production Specialist 4 1Tukwila, WA$DOE12 Months12/04/2019PROO,
534 183369 Test & Evaluation Engineer 3 1Seattle, WA$DOE9 Months12/04/2019ENGO,
535 183328 Buyer 1Anaheim, CA$32 to $33.00 DOE10 Months12/03/2019PROO,
536 183332 Senior Cost Accountant 1Mojave, CAUp to $48.08 DOEDirect12/03/2019PROO,
537 183333 Technical Designer / RCDD 1Raleigh, NCUp to $53.48 DOE6 months, CTH12/03/2019ITO, PPT
538 183334 Electronics Technician 3 1Orlando, FLUp to $30.18 DOE12 Months12/03/2019MANO, S
539 183335 Electronics Technician 2 1Orlando, FLUp to $21.00 DOE12 Months12/03/2019MANO, OM
540 183336 Receiving Clerk 1Cypress, CA$13 to $14.00 DOE6 Months12/03/2019GENO,
541 183340 Launch Build Reliability Engineer 1Cape Canaveral, FL$DOEDirect12/03/2019ENGO,
542 183313 Retail Sales Specialist A 1North Charleston, SC$DOE12 Months12/02/2019ADMHSM,
543 183315 Engineering Technical Support Technician 1Berkeley, MO$DOE12 Months12/02/2019MANO, OM
544 183320 Electro-Mechanical Assembler 4Anaheim, CA$17 to $17.50 DOE12 Months12/02/2019MANO,
545 183323 Electronic Technician 1Rancho Bernardo, CA$DOE6 Months12/02/2019MANO,
546 183262 Coordinator 1California - Remote, Up to $29.81 DOE3 mos11/27/2019ADMO,
547 183266 ASIC/FPGA Design Engineer 1Camden, NJUp to $90.00 DOE12 Months11/27/2019ENGO, I
548 183269 Wire Design & Install Engineer 3 10Oklahoma City, OK$DOE12 Months11/27/2019ENGO, OM
549 183271 Electrical Assembler 1Simi Valley, CA$22 to $25.00 DOE6 Months11/27/2019MANO,
550 183274 EE Technical Designer 3 5Oklahoma City, OK$DOE12 Months11/27/2019ENGO, OM
551 183276 Systems Administrator Sr 1Schriever AFB, CO$DOE12 Months11/27/2019ITO, S
552 183278 Systems Engineer 2Sunnyvale, CA$DOE12 Months11/27/2019ITO, S
553 183280 Database Engineer Staff 3Peterson AFB, CO$DOE12 Months11/27/2019ITO, S
554 183281 Systems Engineer Staff 1Peterson AFB, CO$DOE12 Months11/27/2019ITO, S
555 183283 Systems Integration and Test Engineer 1Peterson AFB, CO$DOE12 Months11/27/2019ITO, S
556 183284 Systems Engineer Staff 1Colorado Springs, co$DOE12 Months11/27/2019ITO, S
557 183293 Wire Design & Install Engineer 4 5Tukwila, WA$DOE6 Months11/27/2019ENGO, OM
558 183294 Wire Design & Install Engineer 3 5Tukwila, WA$DOE6 Months11/27/2019ENGO, OM
559 183298 Wire Design & Install Engineer 5 5Tukwila, WA$DOE6 Months11/27/2019ENGO, OM
560 183300 Quality Inspector 2 1Orlando, FL$DOE5 Months11/27/2019MANO,
561 183252 Senior Test Technician 1Alpharetta, GA$27.4 to $36.06 DOE5 Months11/26/2019MANO,
562 183256 Payroll Clerk 1Mojave, CA$20 to $22.00 DOE6 Months11/26/2019ADMO,
563 183223 Structural Analysis Engineer 4 5Berkeley, MO$DOE12 Months11/25/2019ENGO,
564 183225 Structural Analysis Engineer 5 5Berkeley, MO$DOE12 Months11/25/2019ENGO,
565 183229 JTC_Sys Integratn/Test Eng 1Fort Walton Beach, FL$DOE6 months11/25/2019ENGO, S
566 183230 Quality Inspector-Production I 1College Park, GA$DOE9 MONTHS11/25/2019MANO,
567 183231 Materials & Processes Engineer 1Reno, NV$DOEContract11/25/2019ENGO,
568 183233 Logistics Clerk 1Tempe, AZ$DOE12 months11/25/2019GENO,
569 183235 Production Control Support Associate 1Owego, NY$DOE12 months11/25/2019GENO,
570 183237 Engineering Assistant 1Marion, MA$DOE12 months11/25/2019ENGO,
571 183239 Industrial Engineer 2 4Everett, WA$DOE6 MONTHS11/25/2019ENGO,
572 183209 Material Control Coordinator 1Tupelo, MS$DOE3-6 Months11/22/2019GENO,
573 183217 Avionics Technician 3 3Rancho Bernardo, CAUp to $34.00 DOE1 year11/22/2019MANO,
574 183219 Engineer Scientist I 1Fremont, CA$DOE5 Months11/22/2019ENGO,
575 183220 Engineer Scientist I 1Fremont, CAUp to $26.00 DOE5 Months11/22/2019ENGO,
576 183181 Build Reliability Engineer 1Hawthorne, CA$DOEDirect11/21/2019ENGO,
577 183182 Mortgage Loan Closer/Funder 1Gardena, CA$18.8 to $24.00 DOE3-6 months11/21/2019ADMO,
578 183195 Administrative Assistant 4 1Redondo Beach, CA$41 to $45.00 DOE1 year11/21/2019ADMO, TS
579 183201 Cell Biologist 1Carlsbad, CA$DOE12 Months11/21/2019ENGO,
580 183203 Cell Biologist 1Carlsbad, CA$DOE12 Months11/21/2019ENGO,
581 183204 Onsite Mobile Application Administrator 1Los Angeles, CA$DOE 11/21/2019PROO,
582 183153 Sr Principal Software Engineer 1Melbourne, FLUp to $72.00 DOE1 year11/20/2019ITO, I
583 183155 Structures Technician 1Hawthorne, CA$DOEDirect11/20/2019MANO,
584 183166 Assembler II 13Asheville, NC$14 to $15.00 DOE12 Months11/20/2019MANO,
585 183170 Structural Analysis Engineer 2Palmdale, CA$80 to $85.00 DOE1 year11/20/2019ENGO,
586 183171 Staff Structural Engineer 2Palmdale, CA$80 to $85.00 DOE1 year11/20/2019ENGO,
587 183176 Material Handler 1Grand Island, NYUp to $14.00 DOE12 Months11/20/2019GENO,
588 183177 Material Handler 1Grand Island, NYUp to $14.50 DOE12 Months11/20/2019GENO,
589 183115 Department Finance Assistant 1San Diego, CA$DOE4-6 Months11/19/2019ADMO,
590 183122 Plumber 1El Segundo, CAUp to $20.00 DOE6 months11/19/2019MANO,
591 183123 Sheetmetal Mechanic 2 10Melbourne, FL$22 to $23.00 DOE1 year11/19/2019MANO,
592 183133 Assembler II 1Asheville, NCUp to $14.00 DOE12 Months11/19/2019MANO,
593 183137 Technician II 1College Park, GA$15 to $17.00 DOE9 Months11/19/2019MANO,
594 183141 Assembler 1Santa Maria, CAUp to $12.00 DOE6 Months11/19/2019GENO,
595 183143 JTC_Administrative Support 1Syracuse, NY$DOE12 MONTHS11/19/2019ADMO,
596 183145 Machine Operator 1Owego, NY$DOE12 MONTHS11/19/2019MANHSM,
597 183146 Stock Assistant 2Syracuse, NY$DOE12 MONTHS11/19/2019GENO,
598 183086 Scientist II 1Fremont, CA$DOE12 mos11/18/2019MANO,
599 183092 Manufacturing Technician 1Grand Island, NYUp to $16.00 DOE12 mos11/18/2019MANO,
600 183093 Material Handler 1Grand Island, NYUp to $14.50 DOE11 Months11/18/2019GENO,
601 183095 Material Handler 1Grand Island, NY$DOE12 Months11/18/2019GENO,
602 183107 Application Developer/Analyst 2Baton Rouge, LA$31.49 to $39.36 DOE4.5 years11/18/2019ITO,
603 183109 Dimension Control Technician 2 1St. Augustine, FL$30 to $34.00 DOE1 year11/18/2019MANO,
604 183110 Milling Machine Machinist 2 1St. Augustine, FL$29 to $32.00 DOE1 year11/18/2019MANO,
605 183065 PWB Designer III 1Cincinnati, OH$36 to $50.00 DOE7 Months11/15/2019ENGO, OM
606 183067 Electronic Technician 2Cincinnati, OH$20 to $25.00 DOE7 Months11/15/2019MANO,
607 183071 Configuration Management Specialist 1Cincinnati, OH$33 to $43.00 DOE7 Months11/15/2019ITO,
608 183022 PCB Designer 1Orlando, FLUp to $70.00 DOE1 Year11/14/2019ENGO, OM
609 183026 Supply Chain Ops Coordinator 5Redondo Beach, CAUp to $20.00 DOE7 months11/14/2019MANO,
610 183031 Principal Talent Acquisition Business Partner 3 1Palmdale, CA$42 to $45.00 DOE6 months11/14/2019PROO,
611 183043 Manufacturing Engineer 1 3Ridley Park, PA$DOE9 Months11/14/2019ENGHSM,
612 183044 Production Planning Analyst 1Jacksonville, FL$DOE12 MONTHS11/14/2019ITO,
613 183046 Quality Inspector 2Santa Rosa, CA$21 to $23.00 DOE6 Months11/14/2019MANO, OM
614 183047 Manufacturing Engineer 3 3Ridley Park, PA$DOE9 Months11/14/2019ENGO,
615 183053 Programmer Analyst 3 3Bellevue, WA$DOE12 Months11/14/2019ITO,
616 183055 Administrative Assistant 3 1Palmdale, CAUp to $29.00 DOE6 months11/14/2019ADMO, OM
617 183059 Technical Editor and Writer 3 1Palmdale, CA$38 to $40.00 DOE1 year11/14/2019PROO,
618 183061 Project Team Analyst 1Westfield, MA$DOE12 months11/14/2019PROO,
619 182975 Scientist 1 1Cincinnati, OHUp to $24.00 DOE12 mos11/13/2019ENGHSM,
620 182987 Sheetmetal Production Mechanic 5Melbourne, FL$22 to $23.00 DOE1 year11/13/2019MANO,
621 182988 Sheetmetal Production Mechanic 5Melbourne, FL$22 to $23.00 DOE1 year11/13/2019MANO,
622 183002 Manufacturing Operator 2 1West Hills, CAUp to $17.25 DOE11 Months11/13/2019MANO,
623 183003 Cable and Harness Technician 2 3Melbourne, FLUp to $24.00 DOE1 year11/13/2019MANO,
624 183004 Cable and Harness Technician 3 4Melbourne, FLUp to $28.00 DOE1 year11/13/2019MANO,
625 183009 Business Analyst 3 1Baton Rouge, LA$36.14 to $45.18 DOE4.5 years11/13/2019PROO,
626 183011 System Administrator 4 1Baton Rouge, LA$43.55 to $55.00 DOE4.5 years11/13/2019ITO,
627 183016 Scientist 1South San Francisco, CAUp to $26.26 DOE12 Months11/13/2019ENGO,
628 182957 Solar Panel Assembler 1Sylmar, CA$DOE12 Months11/12/2019MANO,
629 182958 PC/Network Technician 3 3Melbourne, FLUp to $26.00 DOE10 months11/12/2019ITO, S
630 182959 Milling Machine Machinist 3 3Melbourne, FLUp to $40.00 DOE1 year11/12/2019MANO,
631 182968 Senior Software Developer- 1Newports News, VA$48 to $52.00 DOE6 months11/12/2019ITO, S
632 182922 Milling Machine Machinist 2 2Melbourne, FL$28 to $30.00 DOE1 year11/11/2019MANO,
633 182925 Packaging Engineers 3 4Palmdale, CAUp to $48.00 DOE1 year11/11/2019ENGO,
634 182930 Inspector 3 1Saint Augustine, FLUp to $30.00 DOE1 year11/11/2019MANO,
635 182937 Elect Design and Analy Engr 4 3El Segundo, CA$DOE12 MONTHS11/11/2019ENGO,
636 182938 Quality Specialist 1Allentown, PA$DOE4 Months11/11/2019MANO,
637 182939 Senior NET Application Developer/Analyst 1Baton Rouge, LA$49.32 to $61.65 DOE4 years11/11/2019ITHSM,
638 182940 Accounts Payable Clerk 1Sabre Springs, CA$DOE6 Months11/11/2019ADMO,
639 182942 Software Developer- security clearance required 1Portsmouth Naval Shipyard in Kittery, ME$44 to $46.00 DOE6 months11/11/2019ITO, S
640 182943 Sr Principal Engineer Mechanical: Liaison Engineering Electrical 4 1Patuxent River, MD$62 to $64.00 DOE1 year11/11/2019ENGO, S
641 182945 Nurse Employee Health 2 1Palmdale, CA$39 to $42.00 DOE1 year11/11/2019PROO,
642 182948 Sr Principal Supply Chain Planning Specialist 1Redondo Beach, CA$55 to $60.00 DOE1 year11/11/2019PROO,
643 182913 Material Coordinator 1San Antonio, TX$DOE6 MONTHS11/10/2019GENO,
644 182914 Product Repair/Mod Tech C 1Seymour Johnson AFB, NC$DOE12 months11/10/2019MANO, I
645 182897 Software Enginee 1Fort Worth, TX$DOE15 months11/08/2019ITO, S
646 182900 JTC_Subcontract Administrator 1Greenville, SC$DOE12 months11/08/2019PROO,
647 182905 Sheet Metal Mechanic 3Greenville, SC$DOE12 monthhs11/08/2019MANO,
648 182906 Software Asset Management Specialist 1Rancho Cordova, CA$DOE12 Months11/08/2019ITO,
649 182912 Systems Engineer 1Lexington, KY$DOE9 months11/08/2019ENGO, I
650 182872 Quality Control Analyst 1High Point, NC$23.94 to $23.95 DOE11 mos11/07/2019MANO,
651 182874 Quality Control Analyst 1High Point, NC$DOE12 mos11/07/2019MANO,
652 182877 Milling Machine Machinist 1 4Palmdale, CA$25 to $28.00 DOE1 year11/07/2019MANO,
653 182836 Structural & Payload Design Engineer 4 5Berkeley, MO$DOE12 Months11/06/2019ENGO,
654 182841 Design and Analysis Engineer 5 3Oklahoma City, OK$DOE6 MONTHS11/06/2019ENGO, TS
655 182843 Assembler A 4Smithfield, PA$DOE12 Months11/06/2019MANHSM,
656 182844 Design and Analysis Engineer 3 3Oklahoma City, OK$DOE6 Months11/06/2019ENGO, OM
657 182845 Design and Analysis Engineer 3 3Oklahoma City, OK$DOE6 Months11/06/2019ENGO, OM
658 182848 Quality Inspector 2Cypress, CA$15 to $17.00 DOE6 Months11/06/2019MANO,
659 182850 Systems Engineer 2Palmdale, CA$DOE15 months11/06/2019ENGO, TS
660 182852 Systems Engineer 2Palmdale, CA$DOE15 MONTHS11/06/2019ENGO, S
661 182853 Master Planner 1Fort Worth, TX$DOE15 MONTHS11/06/2019PROO, S
662 182854 Master Planner 1Fort Worth, TX$DOE12 MONTHS11/06/2019PROO, S
663 182869 Aircraft Mechanic 1New Orleans, LA$DOE12 Months11/06/2019MANO, I
664 182870 Product Acceptance Spec D 25San Antonio, TX$DOE7 MONTHS11/06/2019MANHSM,
665 182871 Composite Technician 25Mesa, AZ$DOE12 Months11/06/2019GENO,
666 182813 Engineering Laboratory Technician 1Mesa, AZ$DOE12 Months11/05/2019MANO,
667 182816 Data Scientist / Analyst 1Eagan, MNUp to $58.07 DOE6 months, CTH11/05/2019ITO, PPT
668 182817 Software Engineer 1Fort Worth, TX$DOE15 months11/05/2019ITO, I
669 182821 Software Engineer 1Fort Worth, TX$DOE15 months11/05/2019ITO, S
670 182825 Systems Engineer 1Marietta, GA$DOE15 MONTHS11/05/2019ENGO,
671 182826 Systems Engineer 1Marietta, GA$DOE15 MONTHS11/05/2019ENGO,
672 182828 Structural Design Engineer 1Palmdale, CA$DOE 11/05/2019ENGO, S
673 182831 Fleet Configuration Manager 1Fort Worth, TX$DOE15 MONTHS11/05/2019ENGO, S
674 182774 Senior Program Scheduler 1Broken Arrow, OK$27 to $33.00 DOE6 Months11/04/2019PROO, OM
675 182777 Weld Engineer 1Tupelo, MS$DOE6 Months11/04/2019ENGO,
676 182778 Weld Engineer 1Rancho Bernardo, CA$DOE6 Months11/04/2019ENGO,
677 182780 Microelectronic Technician 1 1Manhattan Beach, CA$20 to $25.00 DOE1 year11/04/2019MANO,
678 182783 PC/Network Technician 2 2Melbourne, FLUp to $23.00 DOE1 year11/04/2019ITO, S
679 182788 Electrical Technician 2Nellis AFB, NV$DOE6 MONTHS11/04/2019MANO, S
680 182756 Retail Sales Specialist A 1Renton, WA$DOE12 Months11/01/2019ADMO,
681 182738 Systems Safety Engineer 1Rancho Bernardo, CA$DOE6 Months10/31/2019ENGO, OM
682 182678 Associate Equipment Operator, Folder- Gluer 1Bohemia, NYUp to $16.50 DOE12 mos10/30/2019GENO,
683 182683 Production Technician I 1Madison, WIUp to $17.50 DOE12 mos10/30/2019MANO,
684 182690 Sr Product Engineer 1Muskegon, MI$35 to $47.00 DOE3 Months10/30/2019ENGO,
685 182693 Wire Design & Install Engineer 3 10Oklahoma City, OK$DOE6 Months10/30/2019ENGO, S
686 182695 Manufacturing Planner 4 6Mesa, AZ$DOE6 Months10/30/2019ENGO,
687 182697 Systems Engineer 1Palmdale, CA$DOE15 months10/30/2019ENGO, S
688 182702 Program Manager 1Huntsville, AL$DOEDirect10/30/2019PROO,
689 182705 Systems Engineer 1Palmdale, CA$DOE15 months10/30/2019ENGO, TS
690 182708 Systems Engineer 1Palmdale, CA$DOE15 MONTHS10/30/2019ENGO, TS
691 182709 Systems Engineer 1Palmdale, CA$DOE15 months10/30/2019ENGO, S
692 182712 Engineer 2 1Clearfield, UTUp to $26.97 DOE1 year10/30/2019ENGO,
693 182716 Electrical/Avionics Engineer 1Clearfield, UTUp to $31.25 DOE1 year10/30/2019ENGO,
694 182717 Systems Engineer 1Palmdale, CA$DOE15 months10/30/2019ENGO, S
695 182718 Systems Engineer 1Palmdale, CA$DOE15 MONTHS10/30/2019ENGO, TS
696 182721 Software Engineer 1Marietta, GA$DOE15 months10/30/2019ITO, S
697 182726 Scientist 1Carlsbad, CA$DOE12 Months10/30/2019ENGO,
698 182654 Financial Analyst 1Franklin, MA$DOE12 Months10/29/2019PROO,
699 182656 Media Project Specialist 3 1Tukwila, WA$DOE12 Months10/29/2019PROO,
700 182660 Software Engineer 8Fort Worth, TX$DOE6 months10/29/2019ITO,
701 182662 Systems Engineer 1Palmdale, CA$DOE15 months10/29/2019ENGO, TS
702 182663 Systems Engineer 1Palmdale, CA$DOE15 months10/29/2019ENGO, S
703 182664 Painter 1Cypress, CAUp to $17.00 DOE6 Months10/29/2019MANO,
704 182666 Systems Engineer 1Palmdale, CA$DOE15 months10/29/2019ENGO, TS
705 182667 Systems Engineer 1Palmdale, CA$DOE15 MONTHS10/29/2019ENGO, TS
706 182670 Systems Engineer 1Palmdale, CA$DOE15 MONTHS10/29/2019ENGO, TS
707 182671 Systems Engineer 4 1Mesa, AZ$DOE4 Months10/29/2019ENGO,
708 182634 Lab Technician 1Santa Clara, CA$DOE6 mos10/28/2019MANO,
709 182635 Lab Technician 1Santa Clara, CA$DOE6 mos10/28/2019MANO,
710 182636 Electro Mechanical Assembly Technician 1South San Francisco, Up to $22.51 DOE5 mos10/28/2019MANO,
711 182646 Electrical Design and Analysis Engineer 4 3Oklahoma City, OK$DOE6 Months10/28/2019ENGO, OM
712 182602 Design and Analysis Engineer 4 3Oklahoma City, OK$DOE6 Months10/25/2019ENGO, OM
713 182604 Quality Engineer 1Peachtree City, GA$25 to $30.00 DOE9 Months10/25/2019ENGO,
714 182605 Electrophysics Engineer/Scientist 4 3Oklahoma City, OK$DOE6 Months10/25/2019ENGO, OM
715 182606 Systems Engineer 1Fort Worth, TX$DOE15 months10/25/2019ENGO,
716 182607 Electrical Design and Analysis Engineer 3 3Oklahoma City, OK$DOE6 Months10/25/2019ENGO, OM
717 182608 Systems Engineer 1Fort Worth, TX$DOE15 months10/25/2019ENGO, S
718 182609 Systems Engineer 1Fort Worth, TX$DOE15 months10/25/2019ENGO, S
719 182611 Oracle Developer 1Poway, CA$DOE6-12 Months10/25/2019ITO,
720 182614 Software Engineer 4 1Oklahoma City, OK$DOE6 Months10/25/2019ITO, OM
721 182618 Supply Chain Specialist 2 1Newport News, VA$27.64 to $36.36 DOE1 year10/25/2019PROO,
722 182623 Industrial Engineer 1Cypress, CA$35 to $45.00 DOE6 Months10/25/2019ENGO,
723 182624 Systems Engineer 1Fort Worth, TX$DOE15 MONTHS10/25/2019ENGO, S
724 182625 Integrated Planning and Scheduling Specialist 4 1Oklahoma City, OK$DOE9 Months10/25/2019PROO, OM
725 182632 Software Developer 1Rancho Bernardo, CA$DOE6 Months10/25/2019ITO,
726 182589 Test Equipment Technician 1Phoenix, AZ$25 to $30.00 DOE5 Months10/24/2019MANO,
727 182592 Material Control Coordinator 1Fredericksburg, VA$DOE2 Months10/24/2019GENO,
728 182593 Tool Die Maker 2 1St. Augustine, FLUp to $24.00 DOE1 year10/24/2019MANO,
729 182556 Mechanical/Electronic Assembler 1Alpharetta, GAUp to $26.00 DOE5 Months10/23/2019MANO,
730 182557 Avionic Technician 1Greenville, SC$DOE9 months10/23/2019MANO,
731 182559 APG Mechanic 2Greenville, SC$DOE9 months10/23/2019MANO,
732 182561 Retail Sales Specialist A 1Mukilteo, WA$DOE12 Months10/23/2019ADMO,
733 182565 Cable Assembler 1Colorado Springs, CO$DOE 10/23/2019MANO,
734 182569 System Engineer 1Fort Worth, TX$DOE4 MONTHS10/23/2019ENGO, S
735 182570 Airframe & Powerplant Mechanic 1Las Cruces, NM$30 to $35.00 DOE3 Months CTH10/23/2019MANO,
736 182571 Systems Engineer 1Fort Worth, TX$DOE15 months10/23/2019ENGO, S
737 182572 Avionics A&P Mechanic 2Las Cruces, NM$34 to $39.00 DOE3 Months CTH10/23/2019MANO,
738 182575 Receiving Inspector 2Alpharetta, GAUp to $25.00 DOE5 Months10/23/2019MANO,
739 182513 Precision Structural Assembler 10Mesa, AZ$DOE12 Months10/22/2019MANO,
740 182518 Sr Technical Editor 1El Segundo, CAUp to $35.00 DOE6 months10/22/2019PROO,
741 182520 Systems Engineer 1Fort Worth, TX$DOE15 months10/22/2019ENGO, S
742 182523 JTC_Avionics Engineer 1Fort Worth, TX$DOE12 MONTHS10/22/2019ENGO, S
743 182524 Configuration Controller 1Huntsville, AL$DOE3 Months10/22/2019ITO, OM
744 182533 Manufacturing Analyst 2 3Palmdale, CAUp to $35.00 DOE1 year10/22/2019PROO, OM
745 182539 Avionics Engineer 1Fort Worth, TX$DOE15 months10/22/2019ENGO, S
746 182543 Systems Engineer 1Fort Worth, TX$DOE15 MONTHS10/22/2019ENGO, S
747 182546 Systems Engineer 1Fort Worth, TX$DOE15 months10/22/2019ENGO, TS
748 182548 Systems Engineer 1Fort Worth, TX$DOE15 MONTHS10/22/2019ENGO, S
749 182550 General Laborer I 1Walton, KY$DOE6 months10/22/2019MANO,
750 182472 Structural Analysis Engineer 3 1Ridley Park, PA$DOE6 Months10/21/2019ENGO,
751 182478 Electronic Assembler 1Sterling, VAUp to $18.00 DOE9 Months10/21/2019MANO,
752 182480 Assembler 1Sterling, VAUp to $18.00 DOE9 Months10/21/2019MANO,
753 182481 Tool Design Engineer 3 4Palmdale, CAUp to $50.00 DOE1 year10/21/2019ENGO, OM
754 182482 Configuration Controller 1Rancho Bernardo, CA$DOE3 Months10/21/2019ITO, OM
755 182485 Configuration Controller 1Huntsville, AL$DOE3 Months10/21/2019ITO, OM
756 182486 Configuration Controller 1Englewood, CO$DOE3 Months10/21/2019ITO, OM
757 182487 Configuration Controller 1Rancho Bernardo, CA$DOE3 Months10/21/2019ITO, OM
758 182504 Senior Propulsion Engineer 1Reno, NV$DOEContract10/21/2019ENGO,
759 182508 Technician 1Marion, MA$DOE12 months10/21/2019MANO,
760 182450 Machinist 1Rancho Bernardo, CA$DOE6-12 Months10/18/2019MANO,
761 182452 Tool Design Engineer 2 3Palmdale, CAUp to $40.00 DOE1 year10/18/2019ENGO, OM
762 182454 IT Change Request Business Systems Analyst 1Irvine, CA$40 to $50.00 DOE6 Months10/18/2019ITO,
763 182455 A&P Helicopter Mechanic 6Eglin AFB, FL$DOE6 Months10/18/2019MANO, S
764 182464 Business Systems Analyst 1Jacksonville, FL$DOE12 months10/18/2019PROO,
765 182410 Composites Fabricator I 10Ashburn, VA$22 to $26.00 DOE12 Months10/17/2019MANO, OM
766 182430 Systems Architect 1Huntsville, AL$DOE6 Months10/17/2019ENGO,
767 182432 Lead Systems Security Engineer 1Rancho Bernardo, CA$DOE6 Months10/17/2019ITO, S
768 182433 SysML Modeler 1Rancho Bernardo, CA$DOE6 Months10/17/2019ITO,
769 182437 Senior Laser Scientist 1Rancho Bernardo, CA$DOE3 Month CTH10/17/2019ENGO, S
770 182438 Material Planning Supervisor 1Rancho Bernardo, CA$DOE6 Months10/17/2019PROO,
771 182439 Optical Engineer 1Rancho Bernardo, CA$DOE3 Months CTH10/17/2019ENGO, OM
772 182390 Manufacturing Technician 1Carlsbad, CA$DOE12 Months10/16/2019MANO,
773 182329 Design and Analysis Engineer 4 1Long Beach, CA$DOE6 Months10/15/2019ENGO,
774 182334 Earned Value Management Analyst 1El Segundo, CA$DOEDirect10/15/2019PROO, S
775 182335 Scheduler 1El Segundo, CA$DOEDirect10/15/2019PROO, S
776 182340 Computer Systems Security Analyst 3 1Newport News, VA$38.24 to $50.30 DOE1 year10/15/2019ITO, CON
777 182360 Test & Evaluation Engineer 4 2Seattle, WA$DOE6 Months10/15/2019ENGO,
778 182364 Shipping Clerk 1Cypress, CA$DOE6 Months10/15/2019GENO,
779 182296 Systems Engineer 3 5Hazelwood, MO$DOE6 months10/14/2019ENGO, S
780 182298 Engineering Manufacturing Liaison 1Tupelo, MS$DOE3-6 Months10/14/2019MANO,
781 182300 Engineering Manufacturing Liaison 1Tupelo, MS$DOE3-6 Months10/14/2019MANO,
782 182265 NC Milling Machinist 1Melbourne, FL$25 to $30.00 DOE1 year10/11/2019MANO,
783 182268 Systems Engineer 1Palmdale, CA$DOE15 months10/11/2019ENGO, TS
784 182271 Avionics Engineer 1Fort Worth, TX$DOE15 MONTHS10/11/2019ENGO, TS
785 182272 Engineer Manufacturing 2 1Palmdale, CA$40 to $42.00 DOE1 year10/11/2019MANO,
786 182273 Avionics Engineer 1Fort Worth, TX$DOE15 MONTHS10/11/2019ENGO, S
787 182278 Systems Engineer 1Fort Worth, TX$DOE15 months10/11/2019ENGO, S
788 182279 Systems Engineer 2Fort Worth, TX$DOE15 MONTHS10/11/2019ENGO, S
789 182286 LOGISTIC CLERK 1HUNTINGTON BEACH, CA$DOE5-6 months10/11/2019GENO,
790 182233 Technician 1Wall Township, NJUp to $15.00 DOE9 Months10/10/2019MANO,
791 182235 Technician Field 1Orlando, FL$DOE12 months10/10/2019MANO,
792 182247 Repair Technician 1Ayer, MA$24.52 to $28.85 DOE6 Months CTH10/10/2019MANO,
793 182198 Systems Engineer 1Fort Worth, TX$DOE15 months10/09/2019ENGO, S
794 182199 Systems Engineer 1Fort Worth, TX$DOE15 MONTHS10/09/2019ENGO, S
795 182202 Avionics Engineer 2Fort Worth, TX$DOE15 months10/09/2019ENGO, S
796 182203 Systems Engineer 1Fort Worth, TX$DOE15 MONTHS10/09/2019ENGO, S
797 182206 Senior Recruiter 1Camden, AR$DOE5 Months10/09/2019PROO,
798 182216 Systems Engineer 1Palmdale, CA$DOE15 MONTHS10/09/2019ENGO, TS
799 182224 Aircraft Structures Mechanic 3 4Moss Point, MS$25 to $28.00 DOE1 year10/09/2019MANO,
800 182173 SharePoint Application Analyst 4 1Newport News, VA$43.05 to $64.58 DOE1 year10/08/2019ITO,
801 182181 Systems Engineer 1Fort Worth, TX$DOE15 months10/08/2019ENGO, S
802 182182 Systems Engineer 1Fort Worth, TX$DOE15 MONTHS10/08/2019ENGO, S
803 182183 Systems Engineer 2Palmdale, CA$DOE15 MONTHS10/08/2019ENGO, S
804 182153 PT Computer Operator 1 1Louisville, KYUp to $12.61 DOE6 months10/07/2019ITO,
805 182154 APG Mechanic 1Greenville, SC$DOE2 months10/07/2019MANO,
806 182137 Electronic Technician II 1Costa Mesa, CA$DOE3 MONTHS10/06/2019MANO,
807 182121 Publications Specialist 1San Diego, CA$DOE6+ Months10/04/2019ADMO,
808 182097 Talent Acquisition Partner 1Mojave, CAUp to $58.82 DOE6+ Months10/03/2019PROO,
809 182099 Janitor 2Pinellas Park, FL$DOE18 MONTHS10/03/2019GENO,
810 182067 Technician 1King of Prussia, PA$DOE8 months10/02/2019MANO, S
811 182072 Manufacturing Associate 1Lexington, MAUp to $33.00 DOE6 Months10/02/2019MANO,
812 182073 Security Escort 1King of Prussia, PA$DOE1 MONTH10/02/2019ADMO, TS
813 182077 Systems Engineer 1Fort Worth, TX$DOE15 months10/02/2019ENGO, S
814 182079 Systems Engineer 1Fort Worth, TX$DOE15 MONTHS10/02/2019ENGO, S
815 181999 Systems Engineer 1Fort Worth, TX$DOE15 months10/01/2019ENGO, S
816 182008 Stock Assistant 1Syracuse, NY$17 to $18.00 DOECTH10/01/2019GENO,
817 182010 Avionics Engineer 1Fort Worth, TX$DOE 10/01/2019ENGO, S
818 182014 Retail Sales Specialist A 1Everett, WA$DOE12 Months10/01/2019ADMO,
819 182028 Software Engineer 1Palmdale, CA$DOE3 months10/01/2019ITO, TS
820 182029 Software Engineer 4 1Hazelwood, MO$DOE12 Months10/01/2019ITO, OM
821 182031 5-Axis CNC Machinist 30Hawthorne, CA$22 to $38.00 DOEDirect10/01/2019MANO,
822 182033 Systems Engineer 1Fort Worth, TX$DOE15 months10/01/2019ENGO, S
823 182034 Systems Engineer 3Fort Worth, TX$DOE15 months10/01/2019ENGO, S
824 181973 Air Data Systems Senior Engineer 1Reno, NV$DOEContract09/30/2019ENGO,
825 181974 Senior Stability & Control Engineer 1Reno, NV$DOEContract09/30/2019ENGO,
826 181975 Powerplant Subsystems Engineer 1Reno, NV$DOEContract09/30/2019ENGO,
827 181992 Structural Test Engineer 1Palmdale, CA$DOE3 months09/30/2019ENGO, S
828 181946 Industrial Engineer 4 3Berkeley, MO$DOE12 months09/27/2019ENGO,
829 181950 Fill and Fair Associate 1Cypress, CA$DOE 09/27/2019GENO,
830 181886 Designer 3 5Newport News, VA$27.03 to $35.58 DOE6 months09/26/2019ENGO,
831 181906 General Maintenance Worker 1Coronado Island, CA$DOE4 MONTHS09/26/2019GENO, OM
832 181921 Navigation, Guidance, and Control Manager 1Huntsville, AL$DOEDirect09/26/2019ENGO, S
833 181922 Systems Simulation Manager 1Huntsville, AL$DOEDirect09/26/2019ENGO, S
834 181923 Senior Space System Engineer 1Huntsville, AL$DOEDirect09/26/2019ENGO,
835 181928 Systems Engineer 1Huntsville, AL$DOE 09/26/2019ENGO, OM
836 181859 Logistics Management Analyst 1Fort Bragg, NC$DOE2 months09/25/2019MANO, TS
837 181873 Cost Analyst 1Pax River, VA$100000 to $120000.00 DOEPerm09/25/2019PROO, S
838 181881 Security Assistant Specialist 4Orlando, FLUp to $15.00 DOE6 Months09/25/2019ADMO, OM
839 181824 Avionics/Aircraft Electrician 2Jacksonville, FL$DOE12 Months09/24/2019MANHSM, OM
840 181825 Manufacturing Technician 1Goleta, CA$21 to $22.00 DOE6 Months09/24/2019MANO, OM
841 181838 CNC NX Programmer 3Hawthorne, CA$DOEPerm09/24/2019MANO,
842 181765 Depot Service Technician 1Tewksbury, MAUp to $22.00 DOE12 mos09/23/2019GENO,
843 181804 Inventory Control 1Greenville, SC$DOE12 MONTHS09/23/2019ADMO,
844 181740 Technical Designer 2 1Fort Walton Beach, FL$DOE12 Months09/20/2019ENGHSM,
845 181742 Product Data Mgmt Specialist 4 1Plano, TX$DOE8 Months09/20/2019PROHSM,
846 181743 Strategic Sourcer 1Alpharetta, GA$35 to $40.00 DOE6 Months09/20/2019PROO,
847 181731 Field Service Technician II 1New Brighton, MN$25 to $32.00 DOE6 Months09/19/2019MANO,
848 181689 Nurse Employee Health 2 1El Segundo, CAUp to $45.00 DOE1 year09/17/2019PROO,
849 181656 Systems Engineer 3 (iDS) 1Newport News, VA$36.21 to $47.65 DOE1 year09/16/2019ENGO,
850 181586 Logistics Management Analyst 1Lexington, KY$DOE7 MONTHS09/11/2019MANO, S
851 181590 Manufacturing Planner 1Lexington, KY$DOE 09/11/2019MANO, I
852 181607 Systems Safety Engineer 1Rancho Bernardo, CA$DOE6 mo09/11/2019ENGO, OM
853 181531 Assembler 1Santa Rosa, CA$29848 to $31928.00 DOEDirect09/09/2019MANO,
854 181533 Electronic Technician 1Aston, PA$17 to $24.00 DOETemp to Hire09/09/2019MANO,
855 181534 Design and Analysis Engineer 3 1Hazelwood, MO$DOE12 Months09/09/2019ENGO, S
856 181478 Fill & Fair Technician 2Cypress, CA$12.5 to $14.00 DOECTH09/06/2019MANO,
857 181508 Service Now Developer 1San Diego, CA$DOE6 Months09/06/2019ITO,
858 181456 Technical Subcontracts Engineer 1Alpharetta, GAUp to $50.00 DOE5 Months09/05/2019ENGO,
859 181349 Design and Analysis Engineer 3 1Oklahoma City, OK$DOE6 Months08/29/2019ENGO,
860 181304 Manufacturing Planner 1Lexington, KY$DOE3 months08/28/2019MANO, I
861 181309 Combat Aircraft Training Specialist 5 1Saint Louis, MO$DOE4 Months08/28/2019ENGO, S
862 181283 Safety Engineer 1Fort Worth, TXUp to $68.02 DOE14 Months08/27/2019ENGO, S, I
863 181286 Sheet Metal Mechanic 1Greenville, SCUp to $29.00 DOE6 Months08/27/2019MANO,
864 181235 Electronics Technician 3Fort Worth, TX$DOE10 MONTHS08/26/2019MANO,
865 181202 Electrical Engineer III 1Sterling, VA.$DOE7 months08/23/2019ENGO,
866 181209 Material Handler 1Alpharetta, GAUp to $20.00 DOE10 Months08/23/2019GENO,
867 181215 Design and Analysis Engineer 3 1Hazelwood, MO$DOE12 Months08/23/2019ENGO, OM
868 181167 Systems Engineer 1Fort Worth, TX$DOE3 MONTHS08/22/2019ENGO, TS
869 181183 Computer Support 3 1Palmdale, CA$29 to $31.00 DOE1 year08/22/2019PROO, S
870 181132 Software Engineer 1Littleton/Waterton, CO$DOE12 months08/21/2019ITO, SCI
871 181160 Design Support Administrator 1Fort Worth, TX$DOE12 months08/21/2019ITO, S
872 181089 Mechanical Inspector 1Los Angeles, CA$DOE5-7 months08/20/2019MANO,
873 181091 Principal Structural Analysis Engineer 5Melbourne, FL$70 to $80.00 DOE6 months08/20/2019ENGO, S
874 181092 Sr Principal Structural Analysis Engineer 3Melbourne, FL$80 to $95.00 DOE6 months08/20/2019ENGO, S
875 181068 Structural Analysis Engineer 5Melbourne, FL$95 to $120.00 DOE6 months08/19/2019ENGO, S
876 181070 Assembler I 1Lancaster, NY$DOE4 months08/19/2019MANO,
877 181072 Avionic Technician 1Greenville, SC$DOE3 MONTHS08/19/2019MANO,
878 181048 Product Safety Engineer 1Sunnyvale, CA$DOE6 Months08/16/2019ENGO,
879 181025 Aircraft Assembler 1Tulsa, OKUp to $30.00 DOE6+ Months08/15/2019MANO,
880 180964 Structural Test Technician 4 3Palmdale, CA$35 to $37.00 DOE1 year08/14/2019MANO, S
881 180970 Sr Principal Systems/Mechanical Test Engineer 4 1Palmdale, CA$62 to $65.00 DOE1 year08/14/2019ENGO, S
882 180973 Principal Systems/Mechanical Test Engineer 1Palmdale, CA$51 to $54.00 DOE1 year08/14/2019ENGO, S
883 180938 Electrical Engineer 2Lexington, KY$DOE12 months08/13/2019ENGO, S
884 180953 Recruiting Manager 1Scottsdale, AZ$DOEPerm08/13/2019ENG